AA6034 / N638AE 7700 Squawk Report (19th of May, 2022)

Aircraft E145 Reg No. N638AE Age N/A
Model ERJ-145 Jet engines 2 First flight 09-99
Registered 29-01-18 Rollout 09-99 Delivered 22-09-99
Construction No. 145172 Line No. N/A Series LR
ADSHEX A85B79 Airline name Envoy Air Owner Piedmont Airlines
Airfield based Philadelphia International~PA~N First tracked N/A

Flight history for N638AE

Route Flight No Date Playback
Toledo Express Airport (TOL) - Chicago Ohare Intl (ORD) AA6047 2022-06-28 12:29:00
Chicago Ohare Intl (ORD) - Toledo Express Airport (TOL) AA6081 2022-06-27 23:06:00
Chicago Ohare Intl (ORD) - Toronto Pearson International (YYZ) - Chicago Ohare Intl (ORD) AA6139 2022-06-27 21:17:00
James M Cox Dayton Intl (DAY) - Chicago Ohare Intl (ORD) AA6018 2022-06-27 15:54:00
University Park Airport (SCE) - Philadelphia Intl (PHL) AA6095 2022-06-27 14:08:00
Philadelphia Intl (PHL) - James M Cox Dayton Intl (DAY) AA6189 2022-06-27 12:47:00
University Park Airport (SCE) - Philadelphia Intl (PHL) AA6095 2022-06-27 11:08:00
Philadelphia Intl (PHL) - University Park Airport (SCE) AA6165 2022-06-27 10:38:00
Philadelphia Intl (PHL) - Cincinnati Northern Kentucky Intl (CVG) - Philadelphia Intl (PHL) AA6051 2022-06-27 00:05:00
Greater Rochester Intl (ROC) - Philadelphia Intl (PHL) AA6210 2022-06-26 16:31:00
Charlotte Douglas (CLT) - Greater Rochester Intl (ROC) N/A 2022-06-26 14:44:00
Roanoke–Blacksburg Regional (ROA) - Roanoke–Blacksburg Regional (ROA) N/A 2022-06-25 17:04:00
Roanoke–Blacksburg Regional (ROA) - Charlotte Douglas (CLT) N/A 2022-06-25 17:18:00
Charlotte Douglas (CLT) - Roanoke–Blacksburg Regional (ROA) AA6064 2022-06-24 01:13:00
Charlotte Douglas (CLT) - Pitt–Greenville Airport (PGV) - Charlotte Douglas (CLT) AA6020 2022-06-23 17:48:00
Charlotte Douglas (CLT) - Albert J Ellis (OAJ) - Charlotte Douglas (CLT) AA6053 2022-06-23 14:31:00
Tri-Cities Regional Airport (TRI) - Charlotte Douglas (CLT) AA6097 2022-06-23 01:12:00
Newport News Williamsburg Intl (PHF) - Charlotte Douglas (CLT) AA6071 2022-06-22 22:22:00
Charlotte Douglas (CLT) - Newport News Williamsburg Intl (PHF) AA6055 2022-06-22 18:48:00
Tri-Cities Regional Airport (TRI) - Charlotte Douglas (CLT) AA6212 2022-06-22 16:22:00
Time Lat Lon Altitude Heading Speed Vertical Rate
2022-05-19 23:48:24 GMT 35.521545 -82.580276 3,650 158 177 -960
2022-05-19 23:48:21 GMT 35.524017 -82.581482 3,700 158 178 -896
2022-05-19 23:48:11 GMT 35.531799 -82.585091 3,875 160 182 -896
2022-05-19 23:48:00 GMT 35.540588 -82.588631 4,050 166 186 -1024
2022-05-19 23:47:51 GMT 35.549335 -82.590073 4,200 180 187 -832
2022-05-19 23:47:40 GMT 35.558167 -82.589317 4,275 188 187 -64
2022-05-19 23:47:29 GMT 35.566978 -82.587440 4,250 192 193 128
2022-05-19 23:47:20 GMT 35.576103 -82.584518 4,275 198 199 -384
2022-05-19 23:47:09 GMT 35.585220 -82.580566 4,425 202 210 -1600
2022-05-19 23:46:57 GMT 35.595886 -82.574844 4,725 207 222 -1664
2022-05-19 23:46:43 GMT 35.609619 -82.565689 5,150 210 222 -1600
2022-05-19 23:46:37 GMT 35.613670 -82.562668 5,250 213 222 -1600
2022-05-19 23:46:28 GMT 35.621960 -82.555946 5,525 215 223 -1472
2022-05-19 23:46:18 GMT 35.630447 -82.548119 5,775 222 225 -1664
2022-05-19 23:46:07 GMT 35.638733 -82.538628 6,025 224 228 -1088
2022-05-19 23:45:56 GMT 35.646725 -82.529411 6,175 224 235 -1088
2022-05-19 23:45:47 GMT 35.654892 -82.520027 6,450 224 238 -1792
2022-05-19 23:45:36 GMT 35.663681 -82.510017 6,775 224 239 -1856
2022-05-19 23:45:26 GMT 35.671581 -82.500839 7,075 224 241 -1856
2022-05-19 23:45:16 GMT 35.679962 -82.490906 7,375 225 242 -1792
2022-05-19 23:45:05 GMT 35.688583 -82.480721 7,675 224 244 -1600
2022-05-19 23:44:57 GMT 35.695496 -82.472588 7,900 225 244 -1408
2022-05-19 23:44:54 GMT 35.697098 -82.470650 7,925 225 243 -1280
2022-05-19 23:44:49 GMT 35.701630 -82.465324 8,025 224 239 -64
2022-05-19 23:44:45 GMT 35.705154 -82.461205 8,050 224 239 0
2022-05-19 23:44:34 GMT 35.713486 -82.451424 8,050 224 237 -64
2022-05-19 23:44:23 GMT 35.721859 -82.441582 8,050 224 235 -64
2022-05-19 23:44:14 GMT 35.730286 -82.432770 8,050 216 234 -320
2022-05-19 23:44:03 GMT 35.740082 -82.425499 8,050 210 244 192
2022-05-19 23:43:52 GMT 35.750473 -82.418121 8,025 211 254 -192
2022-05-19 23:43:43 GMT 35.760681 -82.410851 8,050 210 257 -64
2022-05-19 23:43:32 GMT 35.771667 -82.403526 8,025 205 261 64
2022-05-19 23:43:21 GMT 35.783730 -82.397873 8,025 199 265 64
2022-05-19 23:43:12 GMT 35.795925 -82.392731 8,025 199 269 0
2022-05-19 23:43:00 GMT 35.808727 -82.387466 8,025 199 268 -64
2022-05-19 23:42:50 GMT 35.820457 -82.382675 8,050 199 264 64
2022-05-19 23:42:41 GMT 35.832184 -82.377724 8,050 199 261 -64
2022-05-19 23:42:30 GMT 35.843826 -82.372856 8,050 199 259 -64
2022-05-19 23:42:18 GMT 35.856907 -82.367363 8,050 199 255 64
2022-05-19 23:42:10 GMT 35.866730 -82.363213 8,050 199 253 128
2022-05-19 23:41:59 GMT 35.878510 -82.358376 8,025 199 252 -128
2022-05-19 23:41:49 GMT 35.889774 -82.353691 8,050 199 249 -64
2022-05-19 23:41:39 GMT 35.900894 -82.349052 8,050 199 246 -128
2022-05-19 23:41:28 GMT 35.912476 -82.344193 8,050 199 241 64
2022-05-19 23:41:17 GMT 35.923462 -82.339607 8,050 199 238 0
2022-05-19 23:41:07 GMT 35.934402 -82.335030 8,025 199 240 128
2022-05-19 23:40:56 GMT 35.945217 -82.330551 8,025 199 241 0
2022-05-19 23:40:46 GMT 35.956192 -82.326050 8,050 199 247 -192
2022-05-19 23:40:36 GMT 35.967178 -82.321472 8,075 199 254 -320
2022-05-19 23:40:28 GMT 35.976517 -82.317581 8,175 199 255 -1088
2022-05-19 23:40:25 GMT 35.979481 -82.316345 8,225 199 255 -1408
2022-05-19 23:40:18 GMT 35.988464 -82.312668 8,325 199 255 -448
2022-05-19 23:40:15 GMT 35.990700 -82.311729 8,325 199 255 64
2022-05-19 23:40:05 GMT 36.002197 -82.306885 8,350 200 257 0
2022-05-19 23:39:55 GMT 36.013824 -82.301964 8,350 200 252 0
2022-05-19 23:39:45 GMT 36.025635 -82.296867 8,325 200 245 64
2022-05-19 23:39:34 GMT 36.035934 -82.292519 8,325 200 242 -128
2022-05-19 23:39:24 GMT 36.046921 -82.287941 8,350 199 239 -256
2022-05-19 23:39:20 GMT 36.050720 -82.286339 8,350 200 239 -320
2022-05-19 23:39:14 GMT 36.057816 -82.283302 8,375 199 240 -384
2022-05-19 23:39:10 GMT 36.060993 -82.281990 8,400 199 240 -448
2022-05-19 23:39:03 GMT 36.068848 -82.278671 8,500 199 245 -1600
2022-05-19 23:39:00 GMT 36.072071 -82.277313 8,575 199 244 -1536
2022-05-19 23:38:53 GMT 36.083038 -82.272781 8,750 199 246 -1280
2022-05-19 23:38:50 GMT 36.083038 -82.272781 8,800 199 246 -1536
2022-05-19 23:38:43 GMT 36.091370 -82.269287 9,000 199 248 -1536
2022-05-19 23:38:40 GMT 36.094185 -82.268135 9,050 200 248 -1472
2022-05-19 23:38:33 GMT 36.105541 -82.263229 9,275 200 253 -1472
2022-05-19 23:38:30 GMT 36.105541 -82.263229 9,325 200 251 -1536
2022-05-19 23:38:22 GMT 36.113922 -82.259605 9,500 200 253 -1472
2022-05-19 23:38:19 GMT 36.116821 -82.258354 9,550 199 253 -1408
2022-05-19 23:38:12 GMT 36.125515 -82.254700 9,750 200 255 -1344
2022-05-19 23:38:09 GMT 36.128216 -82.253525 9,825 200 255 -1536
2022-05-19 23:37:59 GMT 36.140076 -82.248230 10,075 200 257 -1600
2022-05-19 23:37:51 GMT 36.147720 -82.244911 10,250 200 257 -1472
2022-05-19 23:37:48 GMT 36.151703 -82.243195 10,325 200 257 -1344
2022-05-19 23:37:41 GMT 36.160522 -82.239326 10,500 200 255 -1408
2022-05-19 23:37:37 GMT 36.163689 -82.237984 10,550 200 254 -1280
2022-05-19 23:37:31 GMT 36.174545 -82.233124 10,725 200 254 -1088
2022-05-19 23:37:28 GMT 36.174545 -82.233124 10,775 200 253 -1152
2022-05-19 23:37:20 GMT 36.185898 -82.228088 10,925 200 248 -832
2022-05-19 23:37:17 GMT 36.185898 -82.228088 10,950 200 247 -704
2022-05-19 23:37:10 GMT 36.194550 -82.224365 10,975 199 245 192
2022-05-19 23:37:06 GMT 36.197392 -82.223259 10,975 198 245 64
2022-05-19 23:36:57 GMT 36.208099 -82.219505 11,025 195 247 -384
2022-05-19 23:36:49 GMT 36.216709 -82.216713 11,050 198 254 -320
2022-05-19 23:36:46 GMT 36.220139 -82.215385 11,075 200 256 -640
2022-05-19 23:36:39 GMT 36.228561 -82.211037 11,225 205 258 -1664
2022-05-19 23:36:35 GMT 36.232040 -82.209091 11,350 205 259 -1408
2022-05-19 23:36:28 GMT 36.242733 -82.202980 11,525 205 259 -1600
2022-05-19 23:36:25 GMT 36.242733 -82.202980 11,700 205 259 -1664
2022-05-19 23:36:19 GMT 36.250717 -82.198395 11,775 205 259 -1664
2022-05-19 23:36:15 GMT 36.254089 -82.196495 11,925 205 260 -1536
2022-05-19 23:36:08 GMT 36.262470 -82.191757 12,075 205 261 -1664
2022-05-19 23:36:04 GMT 36.265320 -82.190094 12,150 205 261 -1600
2022-05-19 23:35:55 GMT 36.276306 -82.183800 12,400 206 262 -1664
2022-05-19 23:35:47 GMT 36.285141 -82.178703 12,625 206 263 -1472
2022-05-19 23:35:44 GMT 36.288029 -82.177032 12,700 206 263 -1536
2022-05-19 23:35:41 GMT 36.290863 -82.175331 12,775 206 263 -1472
2022-05-19 23:35:37 GMT 36.296871 -82.171890 12,900 206 264 -1664
2022-05-19 23:35:32 GMT 36.301071 -82.169434 13,025 205 265 -1728
2022-05-19 23:35:26 GMT 36.308258 -82.165375 13,175 205 266 -1600
2022-05-19 23:35:23 GMT 36.311165 -82.163712 13,250 205 266 -1664
2022-05-19 23:35:17 GMT 36.319263 -82.159149 13,450 204 268 -1600
2022-05-19 23:35:14 GMT 36.322678 -82.157310 13,550 204 268 -1728
2022-05-19 23:35:06 GMT 36.332020 -82.152252 13,775 204 270 -1600
2022-05-19 23:35:03 GMT 36.334579 -82.150902 13,825 204 269 -1600
2022-05-19 23:34:56 GMT 36.346069 -82.144775 14,050 204 271 -1536
2022-05-19 23:34:53 GMT 36.346069 -82.144775 14,100 204 271 -1664
2022-05-19 23:34:43 GMT 36.358154 -82.138367 14,375 203 274 -1600
2022-05-19 23:34:35 GMT 36.367821 -82.133377 14,600 203 276 -1728
2022-05-19 23:34:32 GMT 36.370659 -82.131920 14,650 203 277 -1664
2022-05-19 23:34:24 GMT 36.379898 -82.127090 14,875 205 278 -1664
2022-05-19 23:34:21 GMT 36.382736 -82.125488 14,950 206 278 -1728
2022-05-19 23:34:12 GMT 36.394821 -82.118172 15,250 207 281 -1728
2022-05-19 23:34:04 GMT 36.404205 -82.112450 15,475 208 282 -1344
2022-05-19 23:34:01 GMT 36.406494 -82.110901 15,525 211 282 -1408
2022-05-19 23:33:53 GMT 36.415100 -82.103638 15,775 222 279 -1920
2022-05-19 23:33:50 GMT 36.417675 -82.100891 15,825 223 280 -1920
2022-05-19 23:33:41 GMT 36.427872 -82.089783 16,050 217 286 -1536
2022-05-19 23:33:30 GMT 36.440208 -82.081543 16,375 202 297 -1472
2022-05-19 23:33:22 GMT 36.450542 -82.076576 16,575 201 299 -1280
2022-05-19 23:33:19 GMT 36.453415 -82.075256 16,625 201 300 -1984
2022-05-19 23:33:10 GMT 36.467010 -82.068787 16,925 201 304 -1536
2022-05-19 23:33:02 GMT 36.477036 -82.064034 17,150 202 307 -1664
2022-05-19 23:32:59 GMT 36.480240 -82.062492 17,225 201 308 -1856
2022-05-19 23:32:49 GMT 36.493931 -82.056183 17,625 200 309 -2112
2022-05-19 23:32:45 GMT 36.500912 -82.052971 17,775 201 309 -960
2022-05-19 23:32:41 GMT 36.505753 -82.050690 17,825 202 307 -1408
2022-05-19 23:32:38 GMT 36.507893 -82.049698 17,900 201 308 -2816
2022-05-19 23:32:28 GMT 36.522079 -82.043037 18,350 201 309 -2752
2022-05-19 23:32:20 GMT 36.532566 -82.038246 18,725 200 308 -2752
2022-05-19 23:32:17 GMT 36.536041 -82.036690 18,800 200 307 -2752
2022-05-19 23:32:13 GMT 36.542202 -82.033974 18,975 200 305 -2432
2022-05-19 23:32:10 GMT 36.547852 -82.031593 19,150 199 305 -2560
2022-05-19 23:32:07 GMT 36.549187 -82.031052 19,200 199 305 -2240
2022-05-19 23:31:58 GMT 36.563553 -82.025581 19,650 196 305 -2240
2022-05-19 23:31:47 GMT 36.577538 -82.021240 20,075 192 305 -2176
2022-05-19 23:31:39 GMT 36.589825 -82.018547 20,375 189 307 -1984
2022-05-19 23:31:36 GMT 36.592060 -82.018143 20,425 187 307 -1984
2022-05-19 23:31:27 GMT 36.606304 -82.016853 20,750 181 310 -2048
2022-05-19 23:31:21 GMT 36.613495 -82.017059 20,925 166 314 -1984
2022-05-19 23:31:16 GMT 36.621002 -82.017921 21,125 171 312 -2176
2022-05-19 23:31:12 GMT 36.627274 -82.019234 21,425 166 314 -1984
2022-05-19 23:31:09 GMT 36.632401 -82.020721 21,425 163 315 -1920
2022-05-19 23:31:06 GMT 36.636005 -82.022057 21,475 160 316 -2048
2022-05-19 23:30:57 GMT 36.647964 -82.029305 21,900 137 325 -2112
2022-05-19 23:30:53 GMT 36.653183 -82.034286 21,900 137 325 -2112
2022-05-19 23:30:50 GMT 36.655380 -82.036858 21,975 136 325 -1920
2022-05-19 23:30:45 GMT 36.660507 -82.044296 22,150 125 330 -2048
2022-05-19 23:30:41 GMT 36.664444 -82.052017 22,300 117 333 -2048
2022-05-19 23:30:35 GMT 36.667801 -82.061501 22,475 107 336 -1984
2022-05-19 23:30:32 GMT 36.669434 -82.068619 22,800 40 341 -2048
2022-05-19 23:30:25 GMT 36.670780 -82.081367 22,825 91 341 -1984
2022-05-19 23:30:20 GMT 36.670670 -82.089615 22,950 84 342 -2112
2022-05-19 23:30:14 GMT 36.668976 -82.101913 23,175 75 343 -2304
2022-05-19 23:30:09 GMT 36.666405 -82.111404 23,350 44 342 -1984
2022-05-19 23:30:06 GMT 36.663757 -82.118111 23,475 58 343 -1920
2022-05-19 23:30:03 GMT 36.662430 -82.120857 23,525 57 343 -2048
2022-05-19 23:29:59 GMT 36.658813 -82.127319 23,650 50 342 -1920
2022-05-19 23:29:54 GMT 36.651600 -82.136711 23,875 40 341 -2048
2022-05-19 23:29:50 GMT 36.646572 -82.141441 24,050 30 338 -1792
2022-05-19 23:29:46 GMT 36.642292 -82.144661 24,100 27 336 -1984
2022-05-19 23:29:43 GMT 36.638672 -82.146896 24,175 24 335 -1856
2022-05-19 23:29:38 GMT 36.631760 -82.150101 24,350 15 332 -1920
2022-05-19 23:29:33 GMT 36.623669 -82.152199 24,525 5 326 -2048
2022-05-19 23:29:29 GMT 36.616455 -82.152779 24,700 0 322 -2304
2022-05-19 23:29:26 GMT 36.611984 -82.152840 24,825 359 320 -2176
2022-05-19 23:29:22 GMT 36.607269 -82.152618 24,925 357 318 -2432
2022-05-19 23:29:18 GMT 36.601093 -82.151901 25,050 353 315 -1792
2022-05-19 23:29:15 GMT 36.597042 -82.151207 25,175 350 313 -1600
2022-05-19 23:29:12 GMT 36.593037 -82.150269 25,225 349 313 -1728
2022-05-19 23:29:07 GMT 36.584930 -82.147804 25,400 344 309 -2048
2022-05-19 23:29:02 GMT 36.579117 -82.145348 25,550 339 305 -1984
2022-05-19 23:28:55 GMT 36.568970 -82.139809 25,825 333 300 -1664
2022-05-19 23:28:52 GMT 36.566254 -82.138084 25,900 333 300 -1984
2022-05-19 23:28:42 GMT 36.552773 -82.129288 26,250 333 298 -1856
2022-05-19 23:28:31 GMT 36.540298 -82.121140 26,575 333 297 -1984
2022-05-19 23:28:24 GMT 36.531097 -82.115135 26,800 333 295 -1536
2022-05-19 23:28:20 GMT 36.527912 -82.113106 26,850 333 296 -1472
2022-05-19 23:28:15 GMT 36.520844 -82.108559 27,000 333 297 -1152
2022-05-19 23:28:11 GMT 36.515202 -82.104919 27,050 333 298 -704
2022-05-19 23:28:03 GMT 36.505844 -82.098846 27,100 333 304 -64
2022-05-19 23:28:00 GMT 36.502670 -82.096825 27,100 333 304 0
2022-05-19 23:27:53 GMT 36.492207 -82.090019 27,100 333 312 64
2022-05-19 23:27:49 GMT 36.489647 -82.088387 27,100 333 314 128
2022-05-19 23:27:40 GMT 36.476303 -82.079720 27,075 333 324 640
2022-05-19 23:27:32 GMT 36.466003 -82.073135 26,950 333 336 832
2022-05-19 23:27:29 GMT 36.461563 -82.070335 26,925 333 339 1024
2022-05-19 23:27:22 GMT 36.451309 -82.063805 26,825 333 351 704
2022-05-19 23:27:19 GMT 36.447563 -82.061386 26,800 333 356 512
2022-05-19 23:27:09 GMT 36.431408 -82.051041 26,675 333 372 768
2022-05-19 23:27:01 GMT 36.419952 -82.043724 26,600 333 381 768
2022-05-19 23:26:58 GMT 36.415859 -82.041107 26,550 333 383 896
2022-05-19 23:26:55 GMT 36.410522 -82.037598 26,500 333 388 960
2022-05-19 23:26:51 GMT 36.403152 -82.032867 26,400 333 391 896
2022-05-19 23:26:47 GMT 36.399242 -82.030411 26,375 333 391 896
2022-05-19 23:26:38 GMT 36.382530 -82.019661 26,225 333 391 832
2022-05-19 23:26:30 GMT 36.366119 -82.009163 25,950 333 392 896
2022-05-19 23:26:27 GMT 36.366119 -82.009163 26,050 333 391 1088
2022-05-19 23:26:24 GMT 36.359024 -82.004585 25,975 333 392 896
2022-05-19 23:26:17 GMT 36.349319 -81.998405 25,875 333 392 960
2022-05-19 23:26:12 GMT 36.340942 -81.993027 25,800 333 392 1088
2022-05-19 23:26:07 GMT 36.333206 -81.988052 25,725 333 392 1088
2022-05-19 23:25:59 GMT 36.320343 -81.979752 25,600 333 392 960
2022-05-19 23:25:56 GMT 36.315495 -81.976646 25,550 333 392 960
2022-05-19 23:25:46 GMT 36.299435 -81.966309 25,400 333 391 1024
2022-05-19 23:25:41 GMT 36.291412 -81.961098 25,325 333 390 960
2022-05-19 23:25:35 GMT 36.283375 -81.956024 25,225 333 389 1024
2022-05-19 23:25:31 GMT 36.275986 -81.951309 25,150 333 389 1152
2022-05-19 23:25:28 GMT 36.266708 -81.945389 24,875 333 389 1152
2022-05-19 23:25:25 GMT 36.266708 -81.945389 25,025 333 389 1216
2022-05-19 23:25:22 GMT 36.260284 -81.941292 24,950 333 389 1152
2022-05-19 23:25:15 GMT 36.250088 -81.934692 24,825 333 389 1152
2022-05-19 23:25:08 GMT 36.236984 -81.926308 24,675 333 389 1216
2022-05-19 23:25:04 GMT 36.233467 -81.924057 24,625 333 389 1280
2022-05-19 23:24:55 GMT 36.216850 -81.913300 24,375 333 389 1152
2022-05-19 23:24:50 GMT 36.210426 -81.909210 24,350 333 389 1152
2022-05-19 23:24:44 GMT 36.200790 -81.903137 24,225 333 389 1152
2022-05-19 23:24:37 GMT 36.188034 -81.895012 24,075 333 388 1088
2022-05-19 23:24:33 GMT 36.182915 -81.891739 24,025 333 387 1152
2022-05-19 23:24:30 GMT 36.177837 -81.888466 23,975 333 386 1024
2022-05-19 23:24:24 GMT 36.167645 -81.881981 23,850 333 386 1344
2022-05-19 23:24:16 GMT 36.155586 -81.874207 23,700 333 386 1152
2022-05-19 23:24:12 GMT 36.149906 -81.870529 23,625 333 386 1024
2022-05-19 23:24:04 GMT 36.135288 -81.861115 23,450 333 385 1152
2022-05-19 23:24:01 GMT 36.133427 -81.859894 23,425 333 385 1152
2022-05-19 23:23:57 GMT 36.126492 -81.855331 23,350 332 385 1088
2022-05-19 23:23:53 GMT 36.118607 -81.850204 23,250 333 383 1024
2022-05-19 23:23:49 GMT 36.112930 -81.846481 23,200 333 383 1024
2022-05-19 23:23:42 GMT 36.102905 -81.839905 23,075 333 382 1344
2022-05-19 23:23:39 GMT 36.096371 -81.835640 22,975 333 381 1280
2022-05-19 23:23:35 GMT 36.089481 -81.831139 22,900 332 380 1280
2022-05-19 23:23:31 GMT 36.084183 -81.827660 22,825 332 379 1152
2022-05-19 23:23:28 GMT 36.080173 -81.824944 22,775 332 380 1152
2022-05-19 23:23:24 GMT 36.074249 -81.821075 22,700 332 379 1152
2022-05-19 23:23:21 GMT 36.069946 -81.818161 22,600 332 379 1216
2022-05-19 23:23:18 GMT 36.064957 -81.814842 22,575 332 379 1152
2022-05-19 23:23:11 GMT 36.054104 -81.807648 22,400 333 380 1088
2022-05-19 23:23:07 GMT 36.049122 -81.804436 22,375 333 380 1152
2022-05-19 23:23:04 GMT 36.041023 -81.799171 22,275 333 380 1152
2022-05-19 23:23:01 GMT 36.038818 -81.797791 22,250 333 380 1152
2022-05-19 23:22:57 GMT 36.032593 -81.793785 22,175 333 380 1088
2022-05-19 23:22:51 GMT 36.023209 -81.787720 22,075 333 380 1152
2022-05-19 23:22:47 GMT 36.016674 -81.783508 21,975 333 379 1088
2022-05-19 23:22:40 GMT 36.006664 -81.777145 21,875 333 380 1024
2022-05-19 23:22:36 GMT 36.000381 -81.773224 21,800 333 380 896
2022-05-19 23:22:30 GMT 35.990616 -81.767120 21,700 334 380 1152
2022-05-19 23:22:27 GMT 35.984344 -81.763168 21,625 334 380 1216
2022-05-19 23:22:19 GMT 35.974033 -81.756691 21,475 333 379 1088
2022-05-19 23:22:16 GMT 35.968399 -81.753120 21,425 333 378 1088
2022-05-19 23:22:10 GMT 35.957832 -81.746284 21,300 333 378 1152
2022-05-19 23:22:05 GMT 35.951935 -81.742455 21,225 333 377 1216
2022-05-19 23:21:59 GMT 35.942047 -81.736053 21,100 333 377 1088
2022-05-19 23:21:56 GMT 35.936188 -81.732262 20,900 333 377 1152
2022-05-19 23:21:49 GMT 35.926270 -81.725891 20,900 333 376 1088
2022-05-19 23:21:44 GMT 35.917053 -81.719933 20,775 333 374 1216
2022-05-19 23:21:37 GMT 35.907185 -81.713562 20,650 333 373 1280
2022-05-19 23:21:33 GMT 35.901993 -81.710182 20,625 333 373 1344
2022-05-19 23:21:28 GMT 35.894028 -81.705032 20,475 333 373 1152
2022-05-19 23:21:24 GMT 35.886375 -81.700066 20,375 332 372 1216
2022-05-19 23:21:17 GMT 35.878189 -81.694679 20,275 332 371 1152
2022-05-19 23:21:12 GMT 35.870594 -81.689720 20,175 332 370 1216
2022-05-19 23:21:08 GMT 35.862728 -81.684517 20,075 332 370 1152
2022-05-19 23:21:03 GMT 35.854904 -81.679314 19,975 332 369 1216
2022-05-19 23:20:56 GMT 35.846786 -81.673904 19,850 332 367 1152
2022-05-19 23:20:52 GMT 35.839962 -81.669266 19,675 331 366 960
2022-05-19 23:20:46 GMT 35.831909 -81.663780 19,675 331 366 1024
2022-05-19 23:20:40 GMT 35.822433 -81.657372 19,550 332 366 1216
2022-05-19 23:20:37 GMT 35.816174 -81.653137 19,475 332 366 1152
2022-05-19 23:20:33 GMT 35.811676 -81.650162 19,425 332 367 1088
2022-05-19 23:20:29 GMT 35.806583 -81.646767 19,350 332 367 1088
2022-05-19 23:20:25 GMT 35.800579 -81.642792 19,275 332 368 1408
2022-05-19 23:20:20 GMT 35.791855 -81.637054 19,150 333 369 1408
2022-05-19 23:20:13 GMT 35.780563 -81.629936 18,950 335 369 1472
2022-05-19 23:20:09 GMT 35.775970 -81.627159 18,875 335 369 1472
2022-05-19 23:20:06 GMT 35.769745 -81.623550 18,775 336 370 1600
2022-05-19 23:19:59 GMT 35.758347 -81.617722 18,600 340 373 1536
2022-05-19 23:19:55 GMT 35.752769 -81.615326 18,500 343 374 1344
2022-05-19 23:19:49 GMT 35.742016 -81.611824 18,375 348 376 1600
2022-05-19 23:19:45 GMT 35.735172 -81.610008 18,275 349 376 1472
2022-05-19 23:19:38 GMT 35.724236 -81.607262 18,100 349 377 1408
2022-05-19 23:19:34 GMT 35.717392 -81.605507 18,025 349 377 1408
2022-05-19 23:19:31 GMT 35.712204 -81.604271 17,950 349 377 1344
2022-05-19 23:19:27 GMT 35.706406 -81.602821 17,875 349 377 1408
2022-05-19 23:19:21 GMT 35.694721 -81.599838 17,700 349 378 1472
2022-05-19 23:19:14 GMT 35.681396 -81.596375 17,525 349 377 1408
2022-05-19 23:19:09 GMT 35.674530 -81.594658 17,425 349 377 1408
2022-05-19 23:19:00 GMT 35.658005 -81.590538 17,200 349 378 1344
2022-05-19 23:18:54 GMT 35.648727 -81.588333 17,100 349 378 1152
2022-05-19 23:18:49 GMT 35.640839 -81.586418 17,025 349 378 1024
2022-05-19 23:18:46 GMT 35.632946 -81.584473 16,950 349 377 1024
2022-05-19 23:18:41 GMT 35.625092 -81.582527 16,875 349 375 960
2022-05-19 23:18:37 GMT 35.617584 -81.580696 16,800 349 375 1024
2022-05-19 23:18:30 GMT 35.593468 -81.574654 16,650 349 372 960
2022-05-19 23:18:22 GMT 35.593468 -81.574654 16,575 349 372 1024
2022-05-19 23:18:19 GMT 35.588379 -81.573425 16,525 349 372 896
2022-05-19 23:18:13 GMT 35.579269 -81.571205 16,450 350 370 960
2022-05-19 23:18:08 GMT 35.569473 -81.568909 16,350 350 368 960
2022-05-19 23:18:05 GMT 35.564758 -81.567879 16,300 350 368 896
2022-05-19 23:17:57 GMT 35.552364 -81.565071 16,175 350 367 960
2022-05-19 23:17:53 GMT 35.544960 -81.563438 16,100 350 366 960
2022-05-19 23:17:49 GMT 35.533695 -81.560806 16,050 350 364 1088
2022-05-19 23:17:46 GMT 35.533695 -81.560806 16,000 350 364 1088
2022-05-19 23:17:42 GMT 35.528046 -81.559464 15,925 349 363 1088
2022-05-19 23:17:36 GMT 35.518112 -81.557060 15,825 350 361 960
2022-05-19 23:17:31 GMT 35.507301 -81.554497 15,725 350 360 832
2022-05-19 23:17:26 GMT 35.501343 -81.553146 15,650 347 359 1728
2022-05-19 23:17:22 GMT 35.492172 -81.551048 15,575 349 360 1664
2022-05-19 23:17:16 GMT 35.484100 -81.548653 15,425 342 359 1536
2022-05-19 23:17:11 GMT 35.476639 -81.545219 15,325 331 357 1344
2022-05-19 23:17:08 GMT 35.472153 -81.542511 15,250 319 355 1216
2022-05-19 23:17:05 GMT 35.467941 -81.539330 15,175 327 356 1344
2022-05-19 23:17:01 GMT 35.461624 -81.533432 14,950 305 354 576
2022-05-19 23:16:55 GMT 35.455860 -81.526268 14,975 308 355 832
2022-05-19 23:16:48 GMT 35.449623 -81.514992 14,925 297 350 320
2022-05-19 23:16:45 GMT 35.447109 -81.508560 14,900 293 348 512
2022-05-19 23:16:40 GMT 35.443851 -81.498276 14,850 290 345 448
2022-05-19 23:16:34 GMT 35.440979 -81.488342 14,800 290 342 448
2022-05-19 23:16:29 GMT 35.438496 -81.479927 14,775 290 341 448
2022-05-19 23:16:23 GMT 35.435471 -81.469818 14,725 291 339 512
2022-05-19 23:16:18 GMT 35.432190 -81.459450 14,675 292 336 512
2022-05-19 23:16:14 GMT 35.430023 -81.452751 14,650 292 334 512
2022-05-19 23:16:08 GMT 35.426624 -81.442177 14,600 292 331 512
2022-05-19 23:16:03 GMT 35.424088 -81.434158 14,575 291 328 384
2022-05-19 23:15:57 GMT 35.418385 -81.415123 14,400 291 318 1024
2022-05-19 23:15:53 GMT 35.418385 -81.415123 14,450 290 323 640
2022-05-19 23:15:47 GMT 35.415619 -81.405891 14,300 292 318 1088
2022-05-19 23:15:42 GMT 35.413330 -81.398453 14,325 292 318 1152
2022-05-19 23:15:35 GMT 35.409073 -81.385857 14,150 293 315 1216
2022-05-19 23:15:32 GMT 35.407700 -81.381912 14,125 293 315 1216
2022-05-19 23:15:26 GMT 35.404129 -81.371384 13,975 293 313 1600
2022-05-19 23:15:21 GMT 35.401535 -81.363869 13,850 294 312 1664
2022-05-19 23:15:15 GMT 35.397858 -81.354225 13,700 298 313 1472
2022-05-19 23:15:11 GMT 35.395061 -81.347977 13,600 302 314 1408
2022-05-19 23:15:05 GMT 35.389057 -81.337456 13,425 309 315 1536
2022-05-19 23:15:01 GMT 35.386402 -81.333656 13,350 313 316 1536
2022-05-19 23:14:55 GMT 35.378586 -81.324409 13,175 322 318 1344
2022-05-19 23:14:51 GMT 35.375092 -81.321152 13,100 324 319 1664
2022-05-19 23:14:44 GMT 35.366638 -81.313873 12,550 326 317 1728
2022-05-19 23:14:41 GMT 35.362747 -81.310616 12,800 326 317 1728
2022-05-19 23:14:33 GMT 35.349609 -81.299683 12,550 326 316 1408
2022-05-19 23:14:30 GMT 35.349609 -81.299683 12,525 326 316 1408
2022-05-19 23:14:21 GMT 35.337524 -81.289726 12,275 326 312 1152
2022-05-19 23:14:13 GMT 35.328415 -81.282181 11,875 326 308 960
2022-05-19 23:14:10 GMT 35.325073 -81.279427 12,100 326 308 960
2022-05-19 23:13:59 GMT 35.311478 -81.268158 11,875 326 300 1408
2022-05-19 23:13:49 GMT 35.300995 -81.259399 11,650 326 299 1216
2022-05-19 23:13:41 GMT 35.291996 -81.251900 11,500 326 295 1152
2022-05-19 23:13:38 GMT 35.289093 -81.249451 11,450 326 294 1088
2022-05-19 23:13:31 GMT 35.279663 -81.241608 11,300 326 288 1152
2022-05-19 23:13:28 GMT 35.277924 -81.240173 11,275 326 288 1280
2022-05-19 23:13:19 GMT 35.266346 -81.230690 11,050 327 282 1344
2022-05-19 23:13:15 GMT 35.263092 -81.228043 10,975 327 280 1344
2022-05-19 23:13:08 GMT 35.255405 -81.221924 10,800 327 277 1472
2022-05-19 23:12:57 GMT 35.233387 -81.204277 10,400 329 267 2176
2022-05-19 23:12:47 GMT 35.233387 -81.204277 10,250 327 269 1792
2022-05-19 23:12:37 GMT 35.222446 -81.195663 9,925 328 268 2048
2022-05-19 23:12:26 GMT 35.211731 -81.187393 9,575 328 267 1984
2022-05-19 23:12:16 GMT 35.200745 -81.179153 9,200 329 267 2048
2022-05-19 23:12:05 GMT 35.189713 -81.171082 8,850 330 265 2112
2022-05-19 23:11:55 GMT 35.178875 -81.163445 8,500 330 263 2368
2022-05-19 23:11:42 GMT 35.149780 -81.163063 6,700 292 252 2048
2022-05-19 23:11:41 GMT 35.149261 -81.161781 6,700 292 252 2656
2022-05-19 23:11:40 GMT 35.148239 -81.159233 6,700 292 252 2656
2022-05-19 23:11:38 GMT 35.147720 -81.157951 6,700 292 252 2656
2022-05-19 23:11:36 GMT 35.146690 -81.155388 6,700 292 252 2656
2022-05-19 23:11:35 GMT 35.146179 -81.154114 6,700 292 252 2656
2022-05-19 23:11:34 GMT 35.145672 -81.152832 6,700 292 252 2656
2022-05-19 23:11:32 GMT 35.144642 -81.150269 6,700 292 252 2656
2022-05-19 23:11:31 GMT 35.144119 -81.148987 6,700 292 252 2656
2022-05-19 23:11:30 GMT 35.143101 -81.146439 6,700 292 252 2656
2022-05-19 23:11:28 GMT 35.142578 -81.145157 6,700 292 252 2656
2022-05-19 23:11:26 GMT 35.141548 -81.142601 6,700 292 252 2656
2022-05-19 23:11:25 GMT 35.141041 -81.141319 6,700 292 252 2656
2022-05-19 23:11:24 GMT 35.140530 -81.140038 6,700 292 252 2656
2022-05-19 23:11:22 GMT 35.139500 -81.137482 6,700 292 252 2656
2022-05-19 23:11:21 GMT 35.138981 -81.136208 6,700 292 252 2656
2022-05-19 23:11:19 GMT 35.137951 -81.133652 6,700 292 252 2656
2022-05-19 23:11:18 GMT 35.137440 -81.132370 6,700 292 252 2656
2022-05-19 23:11:17 GMT 35.136929 -81.131088 6,700 292 252 2656
2022-05-19 23:11:16 GMT 35.135899 -81.128532 6,700 292 252 2656
2022-05-19 23:11:14 GMT 35.135380 -81.127258 6,700 292 252 2656
2022-05-19 23:11:13 GMT 35.134869 -81.125977 6,700 292 252 2656
2022-05-19 23:11:12 GMT 35.134350 -81.124702 6,700 292 252 2656
2022-05-19 23:11:10 GMT 35.132439 -81.122200 6,500 283 248 2656
2022-05-19 23:11:09 GMT 35.132099 -81.120857 6,500 283 248 2656
2022-05-19 23:11:07 GMT 35.131420 -81.118187 6,500 283 248 2656
2022-05-19 23:11:06 GMT 35.130100 -81.117149 6,400 275 253 2656
2022-05-19 23:11:05 GMT 35.129921 -81.115738 6,400 275 253 2656
2022-05-19 23:11:03 GMT 35.129559 -81.112923 6,400 275 253 2656
2022-05-19 23:11:02 GMT 35.129379 -81.111504 6,400 275 253 2656
2022-05-19 23:11:01 GMT 35.127609 -81.108360 6,200 267 250 2656
2022-05-19 23:10:59 GMT 35.127640 -81.106949 6,200 267 250 2656
2022-05-19 23:10:58 GMT 35.127670 -81.105537 6,200 267 250 2656
2022-05-19 23:10:56 GMT 35.127258 -81.102600 6,100 266 250 2656
2022-05-19 23:10:55 GMT 35.127319 -81.101189 6,100 266 250 2656
2022-05-19 23:10:54 GMT 35.127449 -81.098358 6,100 266 250 2656
2022-05-19 23:10:52 GMT 35.127220 -81.097153 5,800 265 254 2656
2022-05-19 23:10:50 GMT 35.127392 -81.094292 5,800 265 254 2656
2022-05-19 23:10:49 GMT 35.127480 -81.092850 5,800 265 254 2656
2022-05-19 23:10:48 GMT 35.127529 -81.091309 5,800 265 253 2656
2022-05-19 23:10:46 GMT 35.127701 -81.088463 5,800 265 253 2656
2022-05-19 23:10:45 GMT 35.127880 -81.085609 5,800 265 253 2656
2022-05-19 23:10:44 GMT 35.127899 -81.084251 5,600 265 254 2656
2022-05-19 23:10:42 GMT 35.127991 -81.082817 5,600 265 254 2656
2022-05-19 23:10:41 GMT 35.128090 -81.081390 5,600 265 254 2656
2022-05-19 23:10:32 GMT 35.129105 -81.070244 5,375 266 253 2368
2022-05-19 23:10:22 GMT 35.129974 -81.055954 4,975 266 252 1856
2022-05-19 23:10:12 GMT 35.130974 -81.041054 4,625 266 250 1792
2022-05-19 23:10:01 GMT 35.131950 -81.026459 4,325 266 244 1792
2022-05-19 23:09:55 GMT 35.132690 -81.016792 4,000 265 234 1280
2022-05-19 23:09:54 GMT 35.132740 -81.015472 4,000 265 234 1280
2022-05-19 23:09:53 GMT 35.132778 -81.014153 4,000 265 234 1280
2022-05-19 23:09:51 GMT 35.132648 -81.011681 3,800 260 238 1280
2022-05-19 23:09:49 GMT 35.132938 -81.009010 3,800 260 238 1280
2022-05-19 23:09:48 GMT 35.133091 -81.007683 3,800 260 238 1280
2022-05-19 23:09:47 GMT 35.133251 -81.005074 3,600 256 240 1280
2022-05-19 23:09:45 GMT 35.133499 -81.003754 3,600 256 240 1280
2022-05-19 23:09:44 GMT 35.133942 -81.001160 3,600 254 242 1280
2022-05-19 23:09:42 GMT 35.134190 -80.999847 3,600 252 241 1280
2022-05-19 23:09:41 GMT 35.134491 -80.998497 3,600 250 238 1280
2022-05-19 23:09:31 GMT 35.138794 -80.986465 3,475 239 223 1088
2022-05-19 23:09:19 GMT 35.145355 -80.974899 3,250 235 213 1600
2022-05-19 23:09:08 GMT 35.151642 -80.964432 2,850 234 208 2560
2022-05-19 23:08:59 GMT 35.157600 -80.956474 2,575 219 205 1344
2022-05-19 23:08:54 GMT 35.161949 -80.953232 2,450 199 202 352
2022-05-19 23:08:53 GMT 35.162762 -80.952812 2,450 197 204 352
2022-05-19 23:08:52 GMT 35.163658 -80.952377 2,400 194 202 352
2022-05-19 23:08:51 GMT 35.164532 -80.952026 2,400 191 203 352
2022-05-19 23:08:49 GMT 35.166328 -80.951477 2,400 186 202 352
2022-05-19 23:08:47 GMT 35.168171 -80.951149 2,300 184 200 352
2022-05-19 23:08:46 GMT 35.169109 -80.951019 2,300 183 197 -928
2022-05-19 23:08:45 GMT 35.170959 -80.950851 2,300 181 192 -928
2022-05-19 23:08:43 GMT 35.171841 -80.950813 2,300 180 191 736
2022-05-19 23:08:42 GMT 35.172710 -80.950783 2,275 180 189 736
2022-05-19 23:08:39 GMT 35.175056 -80.950752 2,275 181 187 256
2022-05-19 23:08:29 GMT 35.183670 -80.950645 2,125 181 169 1792
2022-05-19 23:07:54 GMT 35.209660 -80.951622 875 175 156 1088
2022-05-19 23:07:52 GMT 35.211090 -80.951759 825 175 155 -768
2022-05-19 23:07:51 GMT 35.211800 -80.951820 825 175 154 -768
2022-05-19 23:07:49 GMT 35.213188 -80.951973 875 176 151 -768
2022-05-19 23:07:48 GMT 35.213871 -80.952026 875 176 150 -768
2022-05-19 23:07:47 GMT 35.214569 -80.952072 875 175 146 448
2022-05-19 23:07:45 GMT 35.215931 -80.952187 875 175 135 -1088
2022-05-19 23:07:44 GMT 35.216541 -80.952248 875 175 134 -1088
2022-05-19 23:07:42 GMT 35.217800 -80.952362 875 175 124 -1088
2022-05-19 23:07:41 GMT 35.218391 -80.952408 875 175 120 -1088
2022-05-19 23:07:40 GMT 35.218929 -80.952454 875 175 119 -1088
2022-05-19 23:07:38 GMT 35.220020 -80.952553 875 175 112 0
2022-05-19 23:07:37 GMT 35.220539 -80.952621 0 176 108 0
2022-05-19 23:07:36 GMT 35.221539 -80.952667 0 175 98 -128
2022-05-19 23:07:35 GMT 35.221989 -80.952713 0 174 95 -128
2022-05-19 23:07:33 GMT 35.222420 -80.952766 0 175 91 -128
2022-05-19 23:07:31 GMT 35.223270 -80.952827 0 175 83 -128
2022-05-19 23:07:30 GMT 35.223671 -80.952919 0 177 75 -128
2022-05-19 23:07:28 GMT 35.224361 -80.952942 0 176 67 -128
2022-05-19 23:07:27 GMT 35.224670 -80.952972 0 177 63 -128
2022-05-19 23:07:26 GMT 35.225239 -80.953041 0 178 54 -128
2022-05-19 23:07:24 GMT 35.225510 -80.953018 0 176 48 -128
2022-05-19 23:07:23 GMT 35.225719 -80.953041 0 177 45 0
2022-05-19 23:07:21 GMT 35.226151 -80.953049 0 175 33 0
2022-05-19 23:07:20 GMT 35.226360 -80.953102 0 177 23 0
2022-05-19 23:07:18 GMT 35.226570 -80.953102 0 175 17 0
2022-05-19 23:07:17 GMT 35.226700 -80.953087 0 163 10 0
2022-05-19 23:07:16 GMT 35.226780 -80.953110 0 148 6 0
2022-05-19 23:07:14 GMT 35.226871 -80.953087 0 150 5 0
2022-05-19 23:07:12 GMT 35.226879 -80.953178 0 179 1 0
2022-05-19 23:07:11 GMT 35.226891 -80.953194 0 179 2 0
2022-05-19 23:07:09 GMT 35.226898 -80.953140 0 177 0 0
2022-05-19 23:07:07 GMT 35.226910 -80.953117 0 175 2 0
2022-05-19 23:07:05 GMT 35.226891 -80.953117 0 166 5 0
2022-05-19 23:07:04 GMT 35.226910 -80.953110 0 156 8 0
2022-05-19 23:07:02 GMT 35.226940 -80.953140 0 166 7 0
2022-05-19 23:07:01 GMT 35.226971 -80.953148 0 175 8 0
2022-05-19 23:06:59 GMT 35.227020 -80.953194 0 200 8 0
2022-05-19 23:06:58 GMT 35.227051 -80.953171 0 214 9 0
2022-05-19 23:06:57 GMT 35.227131 -80.953148 0 238 9 -32
2022-05-19 23:06:55 GMT 35.227188 -80.953117 0 247 7 -32
2022-05-19 23:06:53 GMT 35.227219 -80.953041 0 260 8 -32
2022-05-19 23:06:52 GMT 35.227230 -80.953041 0 258 13 -32
2022-05-19 23:06:51 GMT 35.227211 -80.952950 0 250 13 -32
2022-05-19 23:06:50 GMT 35.227291 -80.952843 0 263 15 -32
2022-05-19 23:06:48 GMT 35.227291 -80.952759 0 261 15 -32
2022-05-19 23:06:47 GMT 35.227310 -80.952652 0 265 11 -32
2022-05-19 23:06:46 GMT 35.227310 -80.952583 0 268 12 -32
2022-05-19 23:06:45 GMT 35.227291 -80.952454 0 258 14 -32
2022-05-19 23:06:43 GMT 35.227310 -80.952316 0 261 9 -32
2022-05-19 23:06:42 GMT 35.227341 -80.952232 0 267 7 0
2022-05-19 23:06:40 GMT 35.227360 -80.952133 0 272 5 0
2022-05-19 23:06:39 GMT 35.227371 -80.952080 0 272 4 0
2022-05-19 23:06:38 GMT 35.227371 -80.952042 0 270 4 0
2022-05-19 23:06:36 GMT 35.227341 -80.951958 0 269 2 0
2022-05-19 23:06:35 GMT 35.227341 -80.951927 0 269 2 0
2022-05-19 23:06:32 GMT 35.227360 -80.951881 0 269 0 0
2022-05-19 23:06:31 GMT 35.227341 -80.951859 0 269 1 0
2022-05-19 23:06:29 GMT 35.227348 -80.951897 0 269 0 0
2022-05-19 23:06:28 GMT 35.227360 -80.951897 0 269 0 0
2022-05-19 23:06:26 GMT 35.227360 -80.951950 0 269 3 0
2022-05-19 23:06:25 GMT 35.227360 -80.951958 0 268 3 0
2022-05-19 23:06:24 GMT 35.227348 -80.951912 0 268 1 0
2022-05-19 23:06:21 GMT 35.227341 -80.951874 0 268 0 0
2022-05-19 23:06:19 GMT 35.227341 -80.951874 0 268 1 0
2022-05-19 23:06:18 GMT 35.227341 -80.951859 0 268 0 0
2022-05-19 23:06:16 GMT 35.227322 -80.951851 0 270 2 0
2022-05-19 23:06:15 GMT 35.227322 -80.951889 0 276 2 0
2022-05-19 23:06:14 GMT 35.227329 -80.951897 0 276 0 0
2022-05-19 23:06:11 GMT 35.227329 -80.951889 0 276 2 0
2022-05-19 23:06:09 GMT 35.227360 -80.951859 0 277 2 0
2022-05-19 23:06:08 GMT 35.227348 -80.951859 0 272 4 0
2022-05-19 23:06:06 GMT 35.227348 -80.951920 0 270 0 0
2022-05-19 23:06:05 GMT 35.227341 -80.951912 0 270 0 0
2022-05-19 23:06:04 GMT 35.227341 -80.951897 0 270 1 -128
2022-05-19 23:06:03 GMT 35.227341 -80.951942 0 269 3 -128
2022-05-19 23:06:01 GMT 35.227322 -80.951920 0 267 3 -128
2022-05-19 23:06:00 GMT 35.227341 -80.951920 0 269 3 -128
2022-05-19 23:05:58 GMT 35.227341 -80.951897 0 268 2 -128
2022-05-19 23:05:57 GMT 35.227341 -80.951874 0 268 0 -128
2022-05-19 23:05:56 GMT 35.227329 -80.951851 0 269 2 -128
2022-05-19 23:05:54 GMT 35.227341 -80.951881 0 277 1 -128
2022-05-19 23:05:53 GMT 35.227348 -80.951874 0 281 1 -128
2022-05-19 23:05:51 GMT 35.227371 -80.951874 0 277 2 -128
2022-05-19 23:05:50 GMT 35.227371 -80.951897 0 273 2 -128
2022-05-19 23:05:48 GMT 35.227341 -80.951920 0 270 4 -128
2022-05-19 23:05:47 GMT 35.227348 -80.951897 0 276 3 -128
2022-05-19 23:05:46 GMT 35.227360 -80.951851 0 282 3 -128
2022-05-19 23:05:44 GMT 35.227360 -80.951851 0 282 5 -128
2022-05-19 23:05:43 GMT 35.227348 -80.951843 0 275 6 -128
2022-05-19 23:05:42 GMT 35.227329 -80.951759 0 276 7 -128
2022-05-19 23:05:40 GMT 35.227329 -80.951698 0 302 5 -128
2022-05-19 23:05:39 GMT 35.227360 -80.951668 0 328 4 0
2022-05-19 23:05:38 GMT 35.227322 -80.951553 0 331 2 -128
2022-05-19 23:05:37 GMT 35.227322 -80.951530 0 332 2 -128
2022-05-19 23:05:35 GMT 35.227329 -80.951523 0 332 2 -128
2022-05-19 23:05:34 GMT 35.227341 -80.951523 0 337 5 0
2022-05-19 23:05:32 GMT 35.227348 -80.951447 0 337 2 0
2022-05-19 23:05:31 GMT 35.227322 -80.951447 0 338 2 0
2022-05-19 23:05:29 GMT 35.227310 -80.951431 0 338 2 0
2022-05-19 23:05:28 GMT 35.227322 -80.951439 0 341 4 0
2022-05-19 23:05:26 GMT 35.227291 -80.951401 0 344 2 -96
2022-05-19 23:05:24 GMT 35.227268 -80.951378 0 344 2 -96
2022-05-19 23:05:22 GMT 35.227261 -80.951332 0 342 1 -96
2022-05-19 23:05:21 GMT 35.227268 -80.951347 0 341 0 -96
2022-05-19 23:05:19 GMT 35.227261 -80.951347 0 341 1 -96
2022-05-19 23:05:18 GMT 35.227268 -80.951363 0 335 1 96
2022-05-19 23:05:16 GMT 35.227280 -80.951370 0 334 1 96
2022-05-19 23:05:14 GMT 35.227280 -80.951378 0 331 1 -160
2022-05-19 23:05:13 GMT 35.227249 -80.951370 0 326 2 -128
2022-05-19 23:05:12 GMT 35.227268 -80.951393 0 323 2 -128
2022-05-19 23:05:10 GMT 35.227268 -80.951401 0 321 2 -128
2022-05-19 23:05:08 GMT 35.227310 -80.951462 0 320 3 -32
2022-05-19 23:05:07 GMT 35.227310 -80.951439 0 320 3 -32
2022-05-19 23:05:06 GMT 35.227291 -80.951439 0 320 3 -32
2022-05-19 23:05:04 GMT 35.227280 -80.951378 0 320 0 -32
2022-05-19 23:05:03 GMT 35.227299 -80.951393 0 320 1 -32
2022-05-19 23:05:01 GMT 35.227291 -80.951408 0 321 1 -32
2022-05-19 23:04:59 GMT 35.227291 -80.951401 0 322 1 -32
2022-05-19 23:04:57 GMT 35.227299 -80.951401 0 323 1 -64
2022-05-19 23:04:55 GMT 35.227291 -80.951378 0 324 1 -64
2022-05-19 23:04:53 GMT 35.227280 -80.951332 0 321 1 0
2022-05-19 23:04:51 GMT 35.227261 -80.951340 0 317 3 0
2022-05-19 23:04:50 GMT 35.227299 -80.951340 0 314 3 0
2022-05-19 23:04:48 GMT 35.227291 -80.951408 0 314 0 0
2022-05-19 23:04:47 GMT 35.227280 -80.951370 0 314 0 0
2022-05-19 23:04:45 GMT 35.227268 -80.951363 0 314 0 0
2022-05-19 23:04:44 GMT 35.227280 -80.951370 0 314 0 0
2022-05-19 23:04:42 GMT 35.227310 -80.951439 0 315 3 0
2022-05-19 23:04:41 GMT 35.227299 -80.951431 0 315 3 0
2022-05-19 23:04:39 GMT 35.227280 -80.951378 0 315 0 0
2022-05-19 23:04:38 GMT 35.227280 -80.951370 0 315 0 0
2022-05-19 23:04:37 GMT 35.227268 -80.951370 0 315 1 0
2022-05-19 23:04:36 GMT 35.227261 -80.951347 0 318 2 0
2022-05-19 23:04:34 GMT 35.227291 -80.951370 0 318 2 0
2022-05-19 23:04:32 GMT 35.227291 -80.951363 0 318 0 0
2022-05-19 23:04:31 GMT 35.227280 -80.951370 0 318 0 0
2022-05-19 23:04:29 GMT 35.227291 -80.951370 0 318 0 0
2022-05-19 23:04:27 GMT 35.227280 -80.951370 0 319 0 0
2022-05-19 23:04:25 GMT 35.227268 -80.951393 0 319 0 0
2022-05-19 23:04:24 GMT 35.227261 -80.951393 0 320 2 0
2022-05-19 23:04:23 GMT 35.227280 -80.951370 0 321 0 0
2022-05-19 23:04:21 GMT 35.227280 -80.951370 0 321 0 0
2022-05-19 23:04:20 GMT 35.227291 -80.951378 0 321 0 0
2022-05-19 23:04:18 GMT 35.227280 -80.951370 0 321 0 0
2022-05-19 23:04:17 GMT 35.227280 -80.951347 0 319 2 0
2022-05-19 23:04:15 GMT 35.227280 -80.951378 0 320 1 0
2022-05-19 23:04:14 GMT 35.227299 -80.951378 0 320 0 0
2022-05-19 23:04:12 GMT 35.227280 -80.951370 0 320 1 0
2022-05-19 23:04:11 GMT 35.227261 -80.951347 0 320 2 0
2022-05-19 23:04:10 GMT 35.227249 -80.951340 0 328 2 -64
2022-05-19 23:04:09 GMT 35.227299 -80.951340 0 329 3 -64
2022-05-19 23:04:07 GMT 35.227280 -80.951347 0 320 4 -64
2022-05-19 23:04:05 GMT 35.227249 -80.951309 0 317 6 -64
2022-05-19 23:04:04 GMT 35.227230 -80.951309 0 320 8 -64
2022-05-19 23:04:03 GMT 35.227211 -80.951263 0 335 12 -64
2022-05-19 23:04:01 GMT 35.227161 -80.951180 0 348 10 -64
2022-05-19 23:04:00 GMT 35.227089 -80.951149 0 349 6 -64
2022-05-19 23:03:59 GMT 35.227032 -80.951180 0 341 7 -64
2022-05-19 23:03:57 GMT 35.227001 -80.951134 0 354 4 -64
2022-05-19 23:03:56 GMT 35.226978 -80.951103 0 7 4 -32
2022-05-19 23:03:55 GMT 35.226910 -80.951103 0 5 4 -32
2022-05-19 23:03:54 GMT 35.226891 -80.951103 0 5 4 -32
2022-05-19 23:03:52 GMT 35.226860 -80.951141 0 6 2 0
2022-05-19 23:03:50 GMT 35.226810 -80.951103 0 6 1 0
2022-05-19 23:03:47 GMT 35.226822 -80.951134 0 7 0 0
2022-05-19 23:03:46 GMT 35.226830 -80.951134 0 7 0 -32
2022-05-19 23:03:43 GMT 35.226810 -80.951134 0 7 0 -32
2022-05-19 23:03:42 GMT 35.226810 -80.951141 0 7 1 -32
2022-05-19 23:03:40 GMT 35.226830 -80.951141 0 7 1 0
2022-05-19 23:03:39 GMT 35.226822 -80.951157 0 7 1 0
2022-05-19 23:03:37 GMT 35.226810 -80.951134 0 7 0 0
2022-05-19 23:03:35 GMT 35.226810 -80.951103 0 7 1 0
2022-05-19 23:03:32 GMT 35.226799 -80.951111 0 7 0 0
2022-05-19 23:03:29 GMT 35.226810 -80.951134 0 4 0 -32
2022-05-19 23:03:26 GMT 35.226810 -80.951118 0 358 0 -32
2022-05-19 23:03:25 GMT 35.226810 -80.951118 0 356 1 -32
2022-05-19 23:03:22 GMT 35.226841 -80.951149 0 354 1 0
2022-05-19 23:03:20 GMT 35.226830 -80.951149 0 354 1 0
2022-05-19 23:03:17 GMT 35.226810 -80.951149 0 354 1 0
2022-05-19 23:03:15 GMT 35.226791 -80.951172 0 355 1 32
2022-05-19 23:03:13 GMT 35.226799 -80.951180 0 356 1 32
2022-05-19 23:03:12 GMT 35.226791 -80.951118 0 356 0 32
2022-05-19 23:03:11 GMT 35.226799 -80.951103 0 357 0 32
2022-05-19 23:03:10 GMT 35.226799 -80.951080 0 357 1 32
2022-05-19 23:03:09 GMT 35.226822 -80.951088 0 357 1 32
2022-05-19 23:03:08 GMT 35.226810 -80.951103 0 357 0 0
2022-05-19 23:03:06 GMT 35.226810 -80.951103 0 357 0 0
2022-05-19 23:03:05 GMT 35.226799 -80.951111 0 356 0 0
2022-05-19 23:03:03 GMT 35.226810 -80.951080 0 354 1 0
2022-05-19 23:03:02 GMT 35.226810 -80.951088 0 352 1 -32
2022-05-19 23:03:01 GMT 35.226799 -80.951118 0 352 0 0
2022-05-19 23:03:00 GMT 35.226810 -80.951141 0 352 1 -32
2022-05-19 23:02:58 GMT 35.226810 -80.951141 0 352 0 -32
2022-05-19 23:02:57 GMT 35.226761 -80.951118 0 354 2 -32
2022-05-19 23:02:54 GMT 35.226810 -80.951141 0 354 1 0
2022-05-19 23:02:53 GMT 35.226822 -80.951149 0 355 1 0
2022-05-19 23:02:51 GMT 35.226799 -80.951149 0 358 1 0
2022-05-19 23:02:48 GMT 35.226822 -80.951134 0 358 0 0
2022-05-19 23:02:47 GMT 35.226830 -80.951134 0 358 0 0
2022-05-19 23:02:46 GMT 35.226822 -80.951118 0 358 0 0
2022-05-19 23:02:44 GMT 35.226830 -80.951134 0 358 0 0
2022-05-19 23:02:42 GMT 35.226841 -80.951141 0 358 1 0
2022-05-19 23:02:41 GMT 35.226830 -80.951118 0 359 0 0
2022-05-19 23:02:40 GMT 35.226822 -80.951134 0 358 0 0
2022-05-19 23:02:37 GMT 35.226822 -80.951134 0 358 0 0
2022-05-19 23:02:35 GMT 35.226810 -80.951134 0 358 0 0
2022-05-19 23:02:33 GMT 35.226822 -80.951134 0 358 0 0
2022-05-19 23:02:31 GMT 35.226822 -80.951141 0 358 0 0
2022-05-19 23:02:30 GMT 35.226822 -80.951141 0 358 0 0
2022-05-19 23:02:28 GMT 35.226830 -80.951134 0 358 0 0
2022-05-19 23:02:26 GMT 35.226810 -80.951157 0 358 1 0
2022-05-19 23:02:25 GMT 35.226822 -80.951141 0 3 0 0
2022-05-19 23:02:24 GMT 35.226822 -80.951118 0 4 0 0
2022-05-19 23:02:23 GMT 35.226810 -80.951080 0 3 3 0
2022-05-19 23:02:21 GMT 35.226841 -80.951157 0 1 3 0
2022-05-19 23:02:20 GMT 35.226822 -80.951141 0 2 2 0
2022-05-19 23:02:19 GMT 35.226791 -80.951118 0 2 1 0
2022-05-19 23:02:17 GMT 35.226810 -80.951088 0 356 4 0
2022-05-19 23:02:16 GMT 35.226822 -80.951141 0 352 4 0
2022-05-19 23:02:15 GMT 35.226810 -80.951157 0 344 5 0
2022-05-19 23:02:13 GMT 35.226749 -80.951103 0 355 4 -64
2022-05-19 23:02:12 GMT 35.226711 -80.951111 0 340 3 -64
2022-05-19 23:02:10 GMT 35.226688 -80.951118 0 337 2 -64
2022-05-19 23:02:09 GMT 35.226700 -80.951134 0 339 5 -64
2022-05-19 23:02:08 GMT 35.226700 -80.951141 0 347 9 -64
2022-05-19 23:02:06 GMT 35.226620 -80.951088 0 4 7 -64
2022-05-19 23:02:05 GMT 35.226589 -80.951050 0 13 7 -64
2022-05-19 23:02:04 GMT 35.226501 -80.951073 0 11 4 -64
2022-05-19 23:02:02 GMT 35.226501 -80.951080 0 10 7 -64
2022-05-19 23:02:01 GMT 35.226471 -80.951088 0 4 6 -64
2022-05-19 23:02:00 GMT 35.226452 -80.951088 0 359 7 -64
2022-05-19 23:01:58 GMT 35.226398 -80.951111 0 346 7 -64
2022-05-19 23:01:57 GMT 35.226372 -80.951134 0 345 8 -64
2022-05-19 23:01:55 GMT 35.226311 -80.951050 0 353 9 -64
2022-05-19 23:01:54 GMT 35.226269 -80.951057 0 340 9 -64
2022-05-19 23:01:52 GMT 35.226170 -80.951057 0 340 4 0
2022-05-19 23:01:51 GMT 35.226109 -80.951118 0 339 4 0
2022-05-19 23:01:49 GMT 35.226070 -80.951088 0 341 4 0
2022-05-19 23:01:47 GMT 35.226021 -80.951050 0 343 0 0
2022-05-19 23:01:46 GMT 35.226009 -80.951050 0 343 0 -32
2022-05-19 23:01:44 GMT 35.226002 -80.951042 0 343 0 -32
2022-05-19 23:01:42 GMT 35.225990 -80.951027 0 343 0 -32
2022-05-19 23:01:40 GMT 35.225990 -80.951042 0 343 0 -32
2022-05-19 23:01:39 GMT 35.226009 -80.951042 0 342 1 -32
2022-05-19 23:01:38 GMT 35.226009 -80.951050 0 342 1 -32
2022-05-19 23:01:37 GMT 35.225971 -80.951050 0 342 0 -32
2022-05-19 23:01:35 GMT 35.225971 -80.951050 0 342 0 -32
2022-05-19 23:01:32 GMT 35.225979 -80.951080 0 342 0 -32
2022-05-19 23:01:31 GMT 35.225979 -80.951057 0 342 0 -32
2022-05-19 23:01:27 GMT 35.225979 -80.951073 0 342 0 -32
2022-05-19 23:01:26 GMT 35.225960 -80.951118 0 342 2 -32
2022-05-19 23:01:25 GMT 35.225960 -80.951111 0 342 2 -32
2022-05-19 23:01:24 GMT 35.225971 -80.951080 0 342 0 -32
2022-05-19 23:01:22 GMT 35.225971 -80.951073 0 342 0 -32
2022-05-19 23:01:21 GMT 35.225971 -80.951080 0 342 0 -32
2022-05-19 23:01:19 GMT 35.225948 -80.951141 0 342 3 -32
2022-05-19 23:01:17 GMT 35.225990 -80.951088 0 342 0 -32
2022-05-19 23:01:14 GMT 35.225979 -80.951057 0 342 0 -32
2022-05-19 23:01:12 GMT 35.225979 -80.951057 0 342 1 -32
2022-05-19 23:01:11 GMT 35.225971 -80.951080 0 342 0 0
2022-05-19 23:01:10 GMT 35.225971 -80.951088 0 342 0 0
2022-05-19 23:01:07 GMT 35.225971 -80.951088 0 342 0 0
2022-05-19 23:01:06 GMT 35.225960 -80.951057 0 342 0 0
2022-05-19 23:01:05 GMT 35.225979 -80.951073 0 342 0 0
2022-05-19 23:01:02 GMT 35.225979 -80.951080 0 342 0 0
2022-05-19 23:00:57 GMT 35.225960 -80.951042 0 342 0 0
2022-05-19 23:00:56 GMT 35.225941 -80.951012 0 342 2 0
2022-05-19 23:00:55 GMT 35.225948 -80.951027 0 341 2 0
2022-05-19 23:00:54 GMT 35.225960 -80.951050 0 341 0 0
2022-05-19 23:00:50 GMT 35.225971 -80.951080 0 340 0 0
2022-05-19 23:00:48 GMT 35.225979 -80.951080 0 340 0 0
2022-05-19 23:00:47 GMT 35.225990 -80.951080 0 340 0 0
2022-05-19 23:00:46 GMT 35.225990 -80.951073 0 340 0 0
2022-05-19 23:00:44 GMT 35.225979 -80.951073 0 339 1 0
2022-05-19 23:00:43 GMT 35.225971 -80.951073 0 339 0 0
2022-05-19 23:00:42 GMT 35.226002 -80.951088 0 339 3 0
2022-05-19 23:00:41 GMT 35.225971 -80.951057 0 339 0 0
2022-05-19 23:00:37 GMT 35.225971 -80.951057 0 339 0 0
2022-05-19 23:00:35 GMT 35.225979 -80.951057 0 339 0 0
2022-05-19 23:00:33 GMT 35.225971 -80.951050 0 339 0 0
2022-05-19 23:00:32 GMT 35.225971 -80.951057 0 339 0 0
2022-05-19 23:00:30 GMT 35.225971 -80.951073 0 347 1 0
2022-05-19 23:00:27 GMT 35.225941 -80.951050 0 347 1 0
2022-05-19 23:00:25 GMT 35.225979 -80.951057 0 346 4 0
2022-05-19 23:00:24 GMT 35.225971 -80.951080 0 349 5 0
2022-05-19 23:00:22 GMT 35.225941 -80.951057 0 349 5 0
2022-05-19 23:00:21 GMT 35.225922 -80.951057 0 348 5 0
2022-05-19 23:00:19 GMT 35.225868 -80.951042 0 359 5 0
2022-05-19 23:00:18 GMT 35.225861 -80.951027 0 2 7 0
2022-05-19 23:00:16 GMT 35.225788 -80.951050 0 354 5 0
2022-05-19 23:00:15 GMT 35.225780 -80.951027 0 2 5 0
2022-05-19 23:00:13 GMT 35.225731 -80.951027 0 3 5 0
2022-05-19 23:00:12 GMT 35.225700 -80.951019 0 9 5 0
2022-05-19 23:00:11 GMT 35.225681 -80.951027 0 2 6 0
2022-05-19 23:00:09 GMT 35.225632 -80.951088 0 334 8 0
2022-05-19 23:00:08 GMT 35.225552 -80.951019 0 348 4 0
2022-05-19 23:00:06 GMT 35.225529 -80.951019 0 352 4 0
2022-05-19 23:00:05 GMT 35.225521 -80.950996 0 7 6 0
2022-05-19 23:00:03 GMT 35.225460 -80.950989 0 7 4 0
2022-05-19 23:00:02 GMT 35.225491 -80.950996 0 4 9 0
2022-05-19 23:00:00 GMT 35.225391 -80.950996 0 5 7 0
2022-05-19 22:59:59 GMT 35.225361 -80.951050 0 349 7 0
2022-05-19 22:59:58 GMT 35.225319 -80.951027 0 350 6 0
2022-05-19 22:59:57 GMT 35.225288 -80.951019 0 346 5 0
2022-05-19 22:59:55 GMT 35.225250 -80.950996 0 354 6 0
2022-05-19 22:59:54 GMT 35.225208 -80.950996 0 354 9 0
2022-05-19 22:59:52 GMT 35.225170 -80.951012 0 347 9 0
2022-05-19 22:59:51 GMT 35.225121 -80.951012 0 349 8 0
2022-05-19 22:59:49 GMT 35.225040 -80.950958 0 3 3 0
2022-05-19 22:59:48 GMT 35.225029 -80.950958 0 1 4 0
2022-05-19 22:59:46 GMT 35.224991 -80.950958 0 1 5 0
2022-05-19 22:59:45 GMT 35.224972 -80.950951 0 5 7 0
2022-05-19 22:59:44 GMT 35.224911 -80.950981 0 346 7 0
2022-05-19 22:59:42 GMT 35.224911 -80.950981 0 348 9 0
2022-05-19 22:59:41 GMT 35.224819 -80.950943 0 1 9 0
2022-05-19 22:59:39 GMT 35.224709 -80.950928 0 358 6 0
2022-05-19 22:59:37 GMT 35.224682 -80.950974 0 353 5 0
2022-05-19 22:59:36 GMT 35.224628 -80.950958 0 346 9 0
2022-05-19 22:59:34 GMT 35.224590 -80.950974 0 347 10 0
2022-05-19 22:59:33 GMT 35.224491 -80.950882 0 11 5 0
2022-05-19 22:59:31 GMT 35.224480 -80.950912 0 3 7 0
2022-05-19 22:59:30 GMT 35.224449 -80.950928 0 359 7 0
2022-05-19 22:59:29 GMT 35.224380 -80.950951 0 347 6 0
2022-05-19 22:59:27 GMT 35.224369 -80.950958 0 346 8 0
2022-05-19 22:59:26 GMT 35.224331 -80.950958 0 354 8 0
2022-05-19 22:59:24 GMT 35.224258 -80.950882 0 3 7 0
2022-05-19 22:59:23 GMT 35.224232 -80.950912 0 358 7 0
2022-05-19 22:59:22 GMT 35.224152 -80.950928 0 1 4 -32
2022-05-19 22:59:20 GMT 35.224129 -80.950928 0 3 3 -32
2022-05-19 22:59:19 GMT 35.224121 -80.950897 0 7 4 -32
2022-05-19 22:59:18 GMT 35.224079 -80.950920 0 6 2 -32
2022-05-19 22:59:16 GMT 35.224030 -80.950943 0 8 1 -32
2022-05-19 22:59:14 GMT 35.223980 -80.950920 0 9 0 -32
2022-05-19 22:59:13 GMT 35.223980 -80.950928 0 9 0 -32
2022-05-19 22:59:12 GMT 35.223969 -80.950920 0 9 1 -32
2022-05-19 22:59:10 GMT 35.223991 -80.950882 0 6 2 -32
2022-05-19 22:59:09 GMT 35.223991 -80.950890 0 6 3 -32
2022-05-19 22:59:07 GMT 35.223999 -80.950951 0 7 1 -32
2022-05-19 22:59:06 GMT 35.223980 -80.950928 0 8 0 -32
2022-05-19 22:59:04 GMT 35.223991 -80.950912 0 8 0 -32
2022-05-19 22:59:02 GMT 35.223980 -80.950897 0 8 1 -32
2022-05-19 22:59:00 GMT 35.223980 -80.950920 0 8 1 -32
2022-05-19 22:58:57 GMT 35.223999 -80.950951 0 8 0 -32
2022-05-19 22:58:56 GMT 35.224041 -80.950958 0 8 2 -32
2022-05-19 22:58:55 GMT 35.224030 -80.950958 0 8 2 -32
2022-05-19 22:58:54 GMT 35.223999 -80.950981 0 8 1 -32
2022-05-19 22:58:52 GMT 35.223999 -80.950981 0 8 1 -32
2022-05-19 22:58:50 GMT 35.223980 -80.950928 0 8 0 -32
2022-05-19 22:58:47 GMT 35.223980 -80.950920 0 8 0 -32
2022-05-19 22:58:46 GMT 35.223980 -80.950912 0 4 1 -32
2022-05-19 22:58:45 GMT 35.223991 -80.950920 0 3 1 -32
2022-05-19 22:58:44 GMT 35.223999 -80.950958 0 1 0 -32
2022-05-19 22:58:42 GMT 35.223999 -80.950958 0 1 0 -32
2022-05-19 22:58:41 GMT 35.223999 -80.950974 0 1 1 0
2022-05-19 22:58:39 GMT 35.223991 -80.950981 0 2 2 0
2022-05-19 22:58:37 GMT 35.224018 -80.950867 0 2 0 0
2022-05-19 22:58:32 GMT 35.223969 -80.950912 0 0 1 -32
2022-05-19 22:58:31 GMT 35.223980 -80.950912 0 0 0 0
2022-05-19 22:58:30 GMT 35.223980 -80.950890 0 0 0 0
2022-05-19 22:58:27 GMT 35.223999 -80.950890 0 0 0 0
2022-05-19 22:58:26 GMT 35.223969 -80.950912 0 0 0 0
2022-05-19 22:58:25 GMT 35.223980 -80.950912 0 0 0 0
2022-05-19 22:58:22 GMT 35.223991 -80.950928 0 0 0 0
2022-05-19 22:58:20 GMT 35.223991 -80.950943 0 359 0 0
2022-05-19 22:58:17 GMT 35.223999 -80.950951 0 359 0 0
2022-05-19 22:58:15 GMT 35.223999 -80.950951 0 357 0 0
2022-05-19 22:58:12 GMT 35.224010 -80.950943 0 356 0 0
2022-05-19 22:58:10 GMT 35.223999 -80.950928 0 355 2 0
2022-05-19 22:58:09 GMT 35.223991 -80.950958 0 355 1 0
2022-05-19 22:58:07 GMT 35.223991 -80.950943 0 0 0 0
2022-05-19 22:58:06 GMT 35.223991 -80.950928 0 0 0 0
2022-05-19 22:58:04 GMT 35.223999 -80.950928 0 0 1 0
2022-05-19 22:58:03 GMT 35.224010 -80.950943 0 0 1 0
2022-05-19 22:58:01 GMT 35.223991 -80.950943 0 0 1 0
2022-05-19 22:58:00 GMT 35.223999 -80.950928 0 0 0 0
2022-05-19 22:57:59 GMT 35.223999 -80.950943 0 0 0 0
2022-05-19 22:57:57 GMT 35.223999 -80.950943 0 0 0 0
2022-05-19 22:57:56 GMT 35.223999 -80.950928 0 0 0 0
2022-05-19 22:57:55 GMT 35.223999 -80.950928 0 0 0 0
2022-05-19 22:57:53 GMT 35.224010 -80.950912 0 358 3 0
2022-05-19 22:57:52 GMT 35.223999 -80.950920 0 357 3 0
2022-05-19 22:57:50 GMT 35.223980 -80.950958 0 6 2 0
2022-05-19 22:57:49 GMT 35.223999 -80.950951 0 10 2 0
2022-05-19 22:57:47 GMT 35.224018 -80.950897 0 18 3 0
2022-05-19 22:57:46 GMT 35.224010 -80.950912 0 19 3 0
2022-05-19 22:57:45 GMT 35.223991 -80.950882 0 19 2 0
2022-05-19 22:57:43 GMT 35.223961 -80.950897 0 18 0 0
2022-05-19 22:57:42 GMT 35.223949 -80.950897 0 18 1 0
2022-05-19 22:57:41 GMT 35.223942 -80.950890 0 14 3 0
2022-05-19 22:57:39 GMT 35.223969 -80.950951 0 13 3 0
2022-05-19 22:57:38 GMT 35.223980 -80.950920 0 14 5 0
2022-05-19 22:57:37 GMT 35.223911 -80.950928 0 13 2 0
2022-05-19 22:57:35 GMT 35.223919 -80.950951 0 17 5 0
2022-05-19 22:57:34 GMT 35.223942 -80.950882 0 19 4 0
2022-05-19 22:57:32 GMT 35.223900 -80.950859 0 28 2 0
2022-05-19 22:57:31 GMT 35.223888 -80.950859 0 354 4 0
2022-05-19 22:57:28 GMT 35.223869 -80.950912 0 333 2 0
2022-05-19 22:57:27 GMT 35.223881 -80.950951 0 323 5 -32
2022-05-19 22:57:25 GMT 35.223862 -80.950958 0 315 5 -32
2022-05-19 22:57:24 GMT 35.223808 -80.950951 0 334 6 -32
2022-05-19 22:57:22 GMT 35.223789 -80.950897 0 1 4 -32
2022-05-19 22:57:21 GMT 35.223789 -80.950829 0 2 3 0
2022-05-19 22:57:19 GMT 35.223782 -80.950867 0 354 3 0
2022-05-19 22:57:18 GMT 35.223759 -80.950851 0 0 4 0
2022-05-19 22:57:16 GMT 35.223759 -80.950851 0 358 7 0
2022-05-19 22:57:15 GMT 35.223721 -80.950882 0 357 6 0
2022-05-19 22:57:13 GMT 35.223690 -80.950844 0 9 6 0
2022-05-19 22:57:12 GMT 35.223629 -80.950790 0 9 5 0
2022-05-19 22:57:11 GMT 35.223629 -80.950851 0 354 3 0
2022-05-19 22:57:10 GMT 35.223621 -80.950882 0 349 4 0
2022-05-19 22:57:08 GMT 35.223591 -80.950867 0 351 3 0
2022-05-19 22:57:06 GMT 35.223579 -80.950829 0 3 7 0
2022-05-19 22:57:04 GMT 35.223511 -80.950859 0 355 6 0
2022-05-19 22:57:03 GMT 35.223492 -80.950829 0 8 6 0
2022-05-19 22:57:02 GMT 35.223450 -80.950829 0 4 4 0
2022-05-19 22:57:00 GMT 35.223412 -80.950844 0 13 6 0
2022-05-19 22:56:59 GMT 35.223389 -80.950829 0 11 7 0
2022-05-19 22:56:57 GMT 35.223309 -80.950882 0 353 7 0
2022-05-19 22:56:56 GMT 35.223282 -80.950912 0 349 9 0
2022-05-19 22:56:55 GMT 35.223240 -80.950859 0 358 6 0
2022-05-19 22:56:53 GMT 35.223179 -80.950829 0 353 7 0
2022-05-19 22:56:52 GMT 35.223148 -80.950859 0 346 7 0
2022-05-19 22:56:50 GMT 35.223068 -80.950851 0 346 5 0
2022-05-19 22:56:49 GMT 35.223042 -80.950844 0 353 4 0
2022-05-19 22:56:47 GMT 35.222950 -80.950768 0 353 1 -32
2022-05-19 22:56:46 GMT 35.222939 -80.950768 0 352 1 -32
2022-05-19 22:56:45 GMT 35.222931 -80.950783 0 352 1 -32
2022-05-19 22:56:42 GMT 35.222931 -80.950813 0 352 2 0
2022-05-19 22:56:40 GMT 35.222912 -80.950798 0 352 2 0
2022-05-19 22:56:38 GMT 35.222900 -80.950783 0 352 2 0
2022-05-19 22:56:37 GMT 35.222939 -80.950829 0 354 3 0
2022-05-19 22:56:35 GMT 35.222889 -80.950798 0 354 0 0
2022-05-19 22:56:27 GMT 35.222889 -80.950790 0 354 0 0
2022-05-19 22:56:25 GMT 35.222900 -80.950790 0 354 0 0
2022-05-19 22:56:21 GMT 35.222881 -80.950790 0 354 0 0
2022-05-19 22:56:19 GMT 35.222881 -80.950798 0 354 0 0
2022-05-19 22:56:18 GMT 35.222889 -80.950790 0 354 1 0
2022-05-19 22:56:15 GMT 35.222881 -80.950790 0 353 2 0
2022-05-19 22:56:13 GMT 35.222851 -80.950844 0 4 5 0
2022-05-19 22:56:12 GMT 35.222900 -80.950798 0 4 1 0
2022-05-19 22:56:11 GMT 35.222931 -80.950752 0 351 5 0
2022-05-19 22:56:10 GMT 35.222881 -80.950813 0 350 1 0
2022-05-19 22:56:08 GMT 35.222870 -80.950851 0 353 4 0
2022-05-19 22:56:07 GMT 35.222858 -80.950790 0 353 0 0
2022-05-19 22:56:05 GMT 35.222851 -80.950768 0 353 1 0
2022-05-19 22:56:04 GMT 35.222858 -80.950783 0 353 1 0
2022-05-19 22:56:02 GMT 35.222881 -80.950768 0 354 3 0
2022-05-19 22:56:01 GMT 35.222858 -80.950790 0 354 4 0
2022-05-19 22:56:00 GMT 35.222832 -80.950760 0 353 3 0
2022-05-19 22:55:58 GMT 35.222820 -80.950798 0 0 4 0
2022-05-19 22:55:57 GMT 35.222790 -80.950760 0 0 2 0
2022-05-19 22:55:55 GMT 35.222771 -80.950768 0 358 1 0
2022-05-19 22:55:54 GMT 35.222778 -80.950783 0 354 3 0
2022-05-19 22:55:52 GMT 35.222771 -80.950790 0 348 4 0
2022-05-19 22:55:50 GMT 35.222740 -80.950798 0 345 2 0
2022-05-19 22:55:49 GMT 35.222729 -80.950798 0 342 5 0
2022-05-19 22:55:48 GMT 35.222691 -80.950790 0 349 4 0
2022-05-19 22:55:46 GMT 35.222679 -80.950768 0 356 5 0
2022-05-19 22:55:45 GMT 35.222660 -80.950760 0 356 5 0
2022-05-19 22:55:44 GMT 35.222641 -80.950768 0 353 6 0
2022-05-19 22:55:42 GMT 35.222591 -80.950790 0 2 7 0
2022-05-19 22:55:41 GMT 35.222569 -80.950706 0 15 8 0
2022-05-19 22:55:40 GMT 35.222530 -80.950752 0 358 6 0
2022-05-19 22:55:38 GMT 35.222469 -80.950760 0 358 8 0
2022-05-19 22:55:37 GMT 35.222420 -80.950737 0 358 5 0
2022-05-19 22:55:36 GMT 35.222370 -80.950737 0 3 5 0
2022-05-19 22:55:34 GMT 35.222359 -80.950737 0 356 7 0
2022-05-19 22:55:33 GMT 35.222321 -80.950752 0 349 6 0
2022-05-19 22:55:32 GMT 35.222240 -80.950752 0 354 4 0
2022-05-19 22:55:30 GMT 35.222229 -80.950729 0 359 4 0
2022-05-19 22:55:29 GMT 35.222198 -80.950729 0 0 7 0
2022-05-19 22:55:27 GMT 35.222160 -80.950752 0 8 7 0
2022-05-19 22:55:26 GMT 35.222130 -80.950722 0 9 7 0
2022-05-19 22:55:24 GMT 35.222050 -80.950691 0 6 6 0
2022-05-19 22:55:23 GMT 35.222012 -80.950729 0 351 2 0
2022-05-19 22:55:21 GMT 35.222019 -80.950752 0 349 6 0
2022-05-19 22:55:20 GMT 35.221981 -80.950783 0 344 4 -64
2022-05-19 22:55:18 GMT 35.221951 -80.950752 0 349 5 -64
2022-05-19 22:55:17 GMT 35.221920 -80.950760 0 353 6 -64
2022-05-19 22:55:15 GMT 35.221859 -80.950722 0 8 5 -64
2022-05-19 22:55:14 GMT 35.221821 -80.950699 0 4 3 -64
2022-05-19 22:55:13 GMT 35.221809 -80.950737 0 2 3 -64
2022-05-19 22:55:12 GMT 35.221802 -80.950722 0 345 6 -64
2022-05-19 22:55:09 GMT 35.221729 -80.950768 0 335 7 -64
2022-05-19 22:55:08 GMT 35.221722 -80.950737 0 345 7 -64
2022-05-19 22:55:07 GMT 35.221722 -80.950684 0 349 8 -64
2022-05-19 22:55:05 GMT 35.221642 -80.950699 0 345 8 -64
2022-05-19 22:55:04 GMT 35.221642 -80.950661 0 0 8 -64
2022-05-19 22:55:03 GMT 35.221561 -80.950569 0 15 4 0
2022-05-19 22:55:01 GMT 35.221481 -80.950668 0 12 3 0
2022-05-19 22:55:00 GMT 35.221458 -80.950668 0 13 2 0
2022-05-19 22:54:58 GMT 35.221458 -80.950706 0 13 4 -32
2022-05-19 22:54:57 GMT 35.221439 -80.950699 0 13 4 -32
2022-05-19 22:54:56 GMT 35.221378 -80.950638 0 14 1 -32
2022-05-19 22:54:54 GMT 35.221378 -80.950638 0 14 1 -32
2022-05-19 22:54:52 GMT 35.221329 -80.950638 0 15 0 -32
2022-05-19 22:54:47 GMT 35.221340 -80.950653 0 15 0 -32
2022-05-19 22:54:42 GMT 35.221359 -80.950653 0 15 0 -64
2022-05-19 22:54:39 GMT 35.221352 -80.950638 0 15 0 -64
2022-05-19 22:54:35 GMT 35.221359 -80.950630 0 15 0 0
2022-05-19 22:54:34 GMT 35.221352 -80.950630 0 15 0 0
2022-05-19 22:54:33 GMT 35.221359 -80.950661 0 15 0 -32
2022-05-19 22:54:29 GMT 35.221352 -80.950630 0 15 0 0
2022-05-19 22:54:26 GMT 35.221371 -80.950653 0 15 0 -32
2022-05-19 22:54:24 GMT 35.221359 -80.950653 0 15 0 -32
2022-05-19 22:54:23 GMT 35.221340 -80.950630 0 15 0 -32
2022-05-19 22:54:21 GMT 35.221359 -80.950623 0 15 0 -32
2022-05-19 22:54:19 GMT 35.221371 -80.950623 0 15 0 -32
2022-05-19 22:54:18 GMT 35.221359 -80.950607 0 13 1 -32
2022-05-19 22:54:17 GMT 35.221359 -80.950607 0 9 1 -32
2022-05-19 22:54:15 GMT 35.221371 -80.950607 0 8 2 -32
2022-05-19 22:54:14 GMT 35.221371 -80.950623 0 7 2 -32
2022-05-19 22:54:13 GMT 35.221401 -80.950661 0 6 0 -32
2022-05-19 22:54:10 GMT 35.221390 -80.950653 0 6 0 -32
2022-05-19 22:54:09 GMT 35.221390 -80.950661 0 6 0 0
2022-05-19 22:54:06 GMT 35.221378 -80.950607 0 6 2 -32
2022-05-19 22:54:04 GMT 35.221378 -80.950607 0 6 2 -32
2022-05-19 22:54:02 GMT 35.221359 -80.950653 0 5 0 0
2022-05-19 22:54:00 GMT 35.221371 -80.950653 0 5 0 0
2022-05-19 22:53:59 GMT 35.221340 -80.950638 0 5 0 0
2022-05-19 22:53:57 GMT 35.221340 -80.950630 0 5 0 0
2022-05-19 22:53:54 GMT 35.221371 -80.950623 0 5 0 0
2022-05-19 22:53:51 GMT 35.221378 -80.950607 0 5 1 0
2022-05-19 22:53:48 GMT 35.221352 -80.950630 0 5 1 0
2022-05-19 22:53:47 GMT 35.221390 -80.950592 0 5 1 0
2022-05-19 22:53:46 GMT 35.221340 -80.950638 0 5 1 0
2022-05-19 22:53:44 GMT 35.221352 -80.950638 0 5 1 0
2022-05-19 22:53:43 GMT 35.221359 -80.950638 0 5 0 0
2022-05-19 22:53:41 GMT 35.221371 -80.950623 0 5 0 0
2022-05-19 22:53:38 GMT 35.221378 -80.950623 0 5 0 0
2022-05-19 22:53:37 GMT 35.221371 -80.950577 0 4 1 0
2022-05-19 22:53:36 GMT 35.221359 -80.950607 0 4 0 -32
2022-05-19 22:53:35 GMT 35.221371 -80.950607 0 4 0 -32
2022-05-19 22:53:33 GMT 35.221359 -80.950623 0 4 0 -32
2022-05-19 22:53:32 GMT 35.221340 -80.950661 0 4 1 -32
2022-05-19 22:53:30 GMT 35.221310 -80.950661 0 4 1 -32
2022-05-19 22:53:29 GMT 35.221340 -80.950668 0 4 0 -32
2022-05-19 22:53:27 GMT 35.221340 -80.950638 0 4 0 -32
2022-05-19 22:53:26 GMT 35.221352 -80.950630 0 4 0 -32
2022-05-19 22:53:23 GMT 35.221359 -80.950623 0 4 0 -32
2022-05-19 22:53:22 GMT 35.221352 -80.950630 0 4 0 -32
2022-05-19 22:53:20 GMT 35.221340 -80.950630 0 4 0 -32
2022-05-19 22:53:18 GMT 35.221352 -80.950638 0 4 0 -32
2022-05-19 22:53:17 GMT 35.221352 -80.950630 0 4 0 0
2022-05-19 22:53:14 GMT 35.221352 -80.950623 0 4 0 0
2022-05-19 22:53:12 GMT 35.221352 -80.950607 0 2 1 0
2022-05-19 22:53:11 GMT 35.221359 -80.950600 0 1 1 0
2022-05-19 22:53:09 GMT 35.221359 -80.950607 0 0 1 0
2022-05-19 22:53:07 GMT 35.221359 -80.950653 0 357 0 0
2022-05-19 22:53:06 GMT 35.221359 -80.950684 0 357 0 0
2022-05-19 22:53:05 GMT 35.221359 -80.950668 0 357 0 0
2022-05-19 22:53:03 GMT 35.221352 -80.950668 0 357 1 0
2022-05-19 22:53:02 GMT 35.221359 -80.950630 0 357 0 0
2022-05-19 22:52:56 GMT 35.221359 -80.950630 0 358 0 0
2022-05-19 22:52:54 GMT 35.221352 -80.950630 0 358 0 0
2022-05-19 22:52:53 GMT 35.221352 -80.950638 0 358 0 0
2022-05-19 22:52:50 GMT 35.221359 -80.950630 0 358 0 0
2022-05-19 22:52:47 GMT 35.221359 -80.950638 0 358 0 0
2022-05-19 22:52:45 GMT 35.221359 -80.950630 0 358 0 0
2022-05-19 22:52:43 GMT 35.221352 -80.950638 0 357 0 0
2022-05-19 22:52:42 GMT 35.221340 -80.950653 0 357 1 0
2022-05-19 22:52:41 GMT 35.221340 -80.950630 0 357 2 0
2022-05-19 22:52:40 GMT 35.221352 -80.950653 0 4 1 0
2022-05-19 22:52:38 GMT 35.221359 -80.950630 0 4 2 0
2022-05-19 22:52:37 GMT 35.221371 -80.950661 0 4 0 0
2022-05-19 22:52:35 GMT 35.221371 -80.950668 0 6 2 0
2022-05-19 22:52:33 GMT 35.221359 -80.950638 0 4 0 0
2022-05-19 22:52:32 GMT 35.221340 -80.950661 0 4 0 0
2022-05-19 22:52:31 GMT 35.221340 -80.950691 0 7 3 0
2022-05-19 22:52:30 GMT 35.221352 -80.950630 0 8 1 0
2022-05-19 22:52:28 GMT 35.221371 -80.950623 0 7 6 0
2022-05-19 22:52:27 GMT 35.221291 -80.950630 0 0 4 0
2022-05-19 22:52:25 GMT 35.221279 -80.950630 0 358 6 0
2022-05-19 22:52:24 GMT 35.221260 -80.950661 0 351 6 0
2022-05-19 22:52:22 GMT 35.221199 -80.950668 0 342 7 0
2022-05-19 22:52:21 GMT 35.221199 -80.950661 0 347 10 0
2022-05-19 22:52:20 GMT 35.221088 -80.950607 0 2 7 0
2022-05-19 22:52:18 GMT 35.221100 -80.950630 0 357 12 0
2022-05-19 22:52:17 GMT 35.221039 -80.950607 0 4 12 0
2022-05-19 22:52:15 GMT 35.220928 -80.950577 0 8 9 0
2022-05-19 22:52:14 GMT 35.220901 -80.950630 0 352 8 0
2022-05-19 22:52:13 GMT 35.220829 -80.950607 0 355 10 0
2022-05-19 22:52:11 GMT 35.220760 -80.950630 0 349 7 0
2022-05-19 22:52:10 GMT 35.220730 -80.950638 0 346 7 0
2022-05-19 22:52:09 GMT 35.220680 -80.950600 0 347 10 0
2022-05-19 22:52:07 GMT 35.220638 -80.950600 0 351 10 0
2022-05-19 22:52:06 GMT 35.220551 -80.950562 0 0 9 0
2022-05-19 22:52:04 GMT 35.220501 -80.950546 0 1 8 0
2022-05-19 22:52:03 GMT 35.220470 -80.950562 0 2 9 0
2022-05-19 22:52:01 GMT 35.220402 -80.950546 0 4 15 0
2022-05-19 22:52:00 GMT 35.220322 -80.950577 0 354 12 0
2022-05-19 22:51:59 GMT 35.220219 -80.950569 0 350 15 0
2022-05-19 22:51:57 GMT 35.220131 -80.950539 0 357 11 0
2022-05-19 22:51:56 GMT 35.220070 -80.950546 0 352 10 0
2022-05-19 22:51:55 GMT 35.220032 -80.950539 0 356 11 0
2022-05-19 22:51:53 GMT 35.219891 -80.950493 0 4 16 -32
2022-05-19 22:51:51 GMT 35.219830 -80.950500 0 1 17 -32
2022-05-19 22:51:50 GMT 35.219662 -80.950531 0 353 13 -32
2022-05-19 22:51:48 GMT 35.219589 -80.950539 0 350 13 -32
2022-05-19 22:51:47 GMT 35.219501 -80.950493 0 358 15 -32
2022-05-19 22:51:45 GMT 35.219429 -80.950447 0 11 15 -32
2022-05-19 22:51:44 GMT 35.219372 -80.950470 0 5 16 -32
2022-05-19 22:51:42 GMT 35.219231 -80.950546 0 337 14 -32
2022-05-19 22:51:41 GMT 35.219181 -80.950508 0 342 15 -32
2022-05-19 22:51:39 GMT 35.219051 -80.950478 0 339 13 -32
2022-05-19 22:51:38 GMT 35.218979 -80.950394 0 331 9 -32
2022-05-19 22:51:37 GMT 35.218929 -80.950394 0 317 9 -32
2022-05-19 22:51:36 GMT 35.218891 -80.950394 0 304 9 -32
2022-05-19 22:51:34 GMT 35.218811 -80.950310 0 292 8 -32
2022-05-19 22:51:33 GMT 35.218788 -80.950310 0 287 10 -32
2022-05-19 22:51:31 GMT 35.218761 -80.950172 0 284 10 0
2022-05-19 22:51:30 GMT 35.218739 -80.950157 0 278 12 0
2022-05-19 22:51:29 GMT 35.218712 -80.950043 0 286 11 0
2022-05-19 22:51:27 GMT 35.218712 -80.949966 0 290 11 0
2022-05-19 22:51:26 GMT 35.218670 -80.949806 0 305 5 0
2022-05-19 22:51:24 GMT 35.218670 -80.949806 0 311 7 0
2022-05-19 22:51:23 GMT 35.218651 -80.949760 0 320 6 -96
2022-05-19 22:51:21 GMT 35.218632 -80.949699 0 333 8 -96
2022-05-19 22:51:20 GMT 35.218601 -80.949692 0 337 9 -96
2022-05-19 22:51:18 GMT 35.218571 -80.949570 0 1 11 -96
2022-05-19 22:51:16 GMT 35.218449 -80.949593 0 334 7 -96
2022-05-19 22:51:15 GMT 35.218430 -80.949677 0 325 7 0
2022-05-19 22:51:14 GMT 35.218410 -80.949669 0 325 8 0
2022-05-19 22:51:12 GMT 35.218311 -80.949562 0 324 2 0
2022-05-19 22:51:11 GMT 35.218300 -80.949547 0 324 2 0
2022-05-19 22:51:10 GMT 35.218300 -80.949608 0 325 3 0
2022-05-19 22:51:08 GMT 35.218288 -80.949600 0 327 3 0
2022-05-19 22:51:07 GMT 35.218288 -80.949593 0 327 4 0
2022-05-19 22:51:06 GMT 35.218262 -80.949539 0 327 0 0
2022-05-19 22:51:04 GMT 35.218262 -80.949532 0 327 0 0
2022-05-19 22:51:03 GMT 35.218262 -80.949509 0 327 0 0
2022-05-19 22:51:01 GMT 35.218262 -80.949532 0 325 2 0
2022-05-19 22:51:00 GMT 35.218269 -80.949570 0 326 2 0
2022-05-19 22:50:58 GMT 35.218269 -80.949562 0 3 4 0
2022-05-19 22:50:57 GMT 35.218262 -80.949509 0 3 2 0
2022-05-19 22:50:56 GMT 35.218250 -80.949471 0 1 1 0
2022-05-19 22:50:54 GMT 35.218262 -80.949493 0 0 1 0
2022-05-19 22:50:53 GMT 35.218262 -80.949501 0 358 1 0
2022-05-19 22:50:52 GMT 35.218269 -80.949516 0 358 1 0
2022-05-19 22:50:49 GMT 35.218250 -80.949501 0 6 2 0
2022-05-19 22:50:47 GMT 35.218250 -80.949532 0 6 1 0
2022-05-19 22:50:46 GMT 35.218250 -80.949516 0 6 0 0
2022-05-19 22:50:44 GMT 35.218250 -80.949532 0 6 0 0
2022-05-19 22:50:43 GMT 35.218262 -80.949539 0 6 1 0
2022-05-19 22:50:41 GMT 35.218262 -80.949532 0 6 2 0
2022-05-19 22:50:40 GMT 35.218231 -80.949516 0 5 2 0
2022-05-19 22:50:38 GMT 35.218231 -80.949562 0 5 1 0
2022-05-19 22:50:37 GMT 35.218220 -80.949509 0 5 3 0
2022-05-19 22:50:36 GMT 35.218220 -80.949570 0 3 0 0
2022-05-19 22:50:34 GMT 35.218208 -80.949562 0 3 1 0
2022-05-19 22:50:32 GMT 35.218239 -80.949547 0 4 3 0
2022-05-19 22:50:31 GMT 35.218239 -80.949562 0 349 5 0
2022-05-19 22:50:30 GMT 35.218201 -80.949562 0 344 2 0
2022-05-19 22:50:28 GMT 35.218182 -80.949570 0 347 4 0
2022-05-19 22:50:27 GMT 35.218159 -80.949562 0 8 4 0
2022-05-19 22:50:26 GMT 35.218159 -80.949509 0 6 7 0
2022-05-19 22:50:24 GMT 35.218121 -80.949516 0 1 6 0
2022-05-19 22:50:23 GMT 35.218109 -80.949532 0 356 8 0
2022-05-19 22:50:22 GMT 35.218010 -80.949547 0 349 5 0
2022-05-19 22:50:20 GMT 35.217979 -80.949539 0 15 5 0
2022-05-19 22:50:19 GMT 35.217972 -80.949493 0 17 4 0
2022-05-19 22:50:18 GMT 35.217880 -80.949562 0 50 4 0
2022-05-19 22:50:16 GMT 35.217819 -80.949539 0 55 3 -96
2022-05-19 22:50:15 GMT 35.217789 -80.949562 0 56 2 -96
2022-05-19 22:50:13 GMT 35.217758 -80.949547 0 56 0 -96
2022-05-19 22:50:12 GMT 35.217751 -80.949547 0 56 0 -96
2022-05-19 22:50:09 GMT 35.217731 -80.949478 0 55 0 -32
2022-05-19 22:50:08 GMT 35.217701 -80.949471 0 55 0 -32
2022-05-19 22:50:06 GMT 35.217690 -80.949493 0 54 0 -32
2022-05-19 22:50:02 GMT 35.217709 -80.949493 0 51 0 -32
2022-05-19 22:50:01 GMT 35.217690 -80.949509 0 53 1 0
2022-05-19 22:49:58 GMT 35.217720 -80.949501 0 53 0 0
2022-05-19 22:49:57 GMT 35.217720 -80.949509 0 53 1 0
2022-05-19 22:49:54 GMT 35.217739 -80.949493 0 53 0 0
2022-05-19 22:49:52 GMT 35.217739 -80.949478 0 53 0 0
2022-05-19 22:49:50 GMT 35.217739 -80.949471 0 53 0 0
2022-05-19 22:49:49 GMT 35.217731 -80.949478 0 53 0 0
2022-05-19 22:49:46 GMT 35.217739 -80.949478 0 53 1 0
2022-05-19 22:49:45 GMT 35.217720 -80.949493 0 53 1 0
2022-05-19 22:49:44 GMT 35.217709 -80.949493 0 49 2 0
2022-05-19 22:49:42 GMT 35.217720 -80.949471 0 48 3 0
2022-05-19 22:49:41 GMT 35.217751 -80.949471 0 43 2 0
2022-05-19 22:49:39 GMT 35.217751 -80.949493 0 43 0 0
2022-05-19 22:49:38 GMT 35.217739 -80.949478 0 43 0 0
2022-05-19 22:49:37 GMT 35.217731 -80.949493 0 43 0 0
2022-05-19 22:49:35 GMT 35.217739 -80.949493 0 43 1 0
2022-05-19 22:49:34 GMT 35.217751 -80.949478 0 42 1 0
2022-05-19 22:49:32 GMT 35.217739 -80.949493 0 40 2 0
2022-05-19 22:49:31 GMT 35.217751 -80.949532 0 40 3 0
2022-05-19 22:49:29 GMT 35.217751 -80.949509 0 42 1 0
2022-05-19 22:49:28 GMT 35.217720 -80.949478 0 42 2 0
2022-05-19 22:49:27 GMT 35.217731 -80.949471 0 40 2 0
2022-05-19 22:49:24 GMT 35.217739 -80.949493 0 44 3 0
2022-05-19 22:49:23 GMT 35.217751 -80.949471 0 42 0 -64
2022-05-19 22:49:21 GMT 35.217751 -80.949463 0 42 1 -64
2022-05-19 22:49:19 GMT 35.217758 -80.949493 0 44 1 -64
2022-05-19 22:49:18 GMT 35.217751 -80.949493 0 44 1 -64
2022-05-19 22:49:16 GMT 35.217739 -80.949471 0 45 1 -64
2022-05-19 22:49:15 GMT 35.217739 -80.949409 0 46 5 -64
2022-05-19 22:49:14 GMT 35.217731 -80.949448 0 357 5 -64
2022-05-19 22:49:12 GMT 35.217720 -80.949493 0 348 4 -64
2022-05-19 22:49:11 GMT 35.217709 -80.949532 0 344 7 -64
2022-05-19 22:49:09 GMT 35.217670 -80.949501 0 352 4 -64
2022-05-19 22:49:07 GMT 35.217640 -80.949463 0 2 5 -64
2022-05-19 22:49:06 GMT 35.217602 -80.949471 0 353 4 -64
2022-05-19 22:49:04 GMT 35.217571 -80.949478 0 343 4 -64
2022-05-19 22:49:03 GMT 35.217541 -80.949501 0 328 3 -64
2022-05-19 22:49:02 GMT 35.217529 -80.949516 0 334 5 -64
2022-05-19 22:49:01 GMT 35.217510 -80.949471 0 357 5 -64
2022-05-19 22:48:59 GMT 35.217480 -80.949440 0 354 4 0
2022-05-19 22:48:58 GMT 35.217449 -80.949463 0 351 4 0
2022-05-19 22:48:56 GMT 35.217419 -80.949463 0 351 4 0
2022-05-19 22:48:55 GMT 35.217400 -80.949463 0 351 4 0
2022-05-19 22:48:53 GMT 35.217339 -80.949448 0 351 0 0
2022-05-19 22:48:50 GMT 35.217350 -80.949432 0 355 0 0
2022-05-19 22:48:48 GMT 35.217350 -80.949440 0 355 0 0
2022-05-19 22:48:47 GMT 35.217339 -80.949448 0 354 0 0
2022-05-19 22:48:46 GMT 35.217339 -80.949432 0 354 0 0
2022-05-19 22:48:44 GMT 35.217331 -80.949440 0 354 0 0
2022-05-19 22:48:43 GMT 35.217319 -80.949448 0 355 2 0
2022-05-19 22:48:42 GMT 35.217350 -80.949402 0 353 3 0
2022-05-19 22:48:40 GMT 35.217331 -80.949440 0 352 1 0
2022-05-19 22:48:38 GMT 35.217350 -80.949440 0 352 0 0
2022-05-19 22:48:37 GMT 35.217350 -80.949440 0 352 0 -96
2022-05-19 22:48:35 GMT 35.217331 -80.949471 0 354 1 -96
2022-05-19 22:48:34 GMT 35.217350 -80.949448 0 355 0 -96
2022-05-19 22:48:32 GMT 35.217339 -80.949440 0 355 0 -96
2022-05-19 22:48:31 GMT 35.217350 -80.949409 0 354 2 -96
2022-05-19 22:48:30 GMT 35.217350 -80.949387 0 351 4 -96
2022-05-19 22:48:28 GMT 35.217331 -80.949440 0 343 2 -96
2022-05-19 22:48:27 GMT 35.217339 -80.949463 0 341 4 -96
2022-05-19 22:48:26 GMT 35.217339 -80.949478 0 340 6 -96
2022-05-19 22:48:24 GMT 35.217270 -80.949448 0 351 3 -96
2022-05-19 22:48:23 GMT 35.217258 -80.949448 0 0 4 -96
2022-05-19 22:48:21 GMT 35.217232 -80.949417 0 9 3 -96
2022-05-19 22:48:19 GMT 35.217201 -80.949432 0 7 6 -96
2022-05-19 22:48:18 GMT 35.217159 -80.949440 0 3 6 -96
2022-05-19 22:48:17 GMT 35.217121 -80.949440 0 0 4 -96
2022-05-19 22:48:15 GMT 35.217079 -80.949440 0 7 2 0
2022-05-19 22:48:13 GMT 35.217030 -80.949440 0 7 1 0
2022-05-19 22:48:12 GMT 35.217041 -80.949448 0 7 3 0
2022-05-19 22:48:11 GMT 35.216942 -80.949417 0 8 2 -128
2022-05-19 22:48:09 GMT 35.216942 -80.949417 0 8 2 -128
2022-05-19 22:48:08 GMT 35.216949 -80.949417 0 8 2 -128
2022-05-19 22:48:07 GMT 35.216980 -80.949409 0 8 1 -128
2022-05-19 22:48:05 GMT 35.216949 -80.949417 0 8 3 96
2022-05-19 22:48:04 GMT 35.216969 -80.949371 0 8 2 96
2022-05-19 22:48:03 GMT 35.216980 -80.949379 0 7 2 -192
2022-05-19 22:48:01 GMT 35.216980 -80.949417 0 4 1 -192
2022-05-19 22:48:00 GMT 35.216949 -80.949387 0 4 1 32
2022-05-19 22:47:57 GMT 35.216969 -80.949402 0 0 1 -160
2022-05-19 22:47:55 GMT 35.217049 -80.949409 0 357 3 0
2022-05-19 22:47:54 GMT 35.216969 -80.949448 0 357 2 0
2022-05-19 22:47:53 GMT 35.216969 -80.949440 0 358 2 0
2022-05-19 22:47:51 GMT 35.216969 -80.949432 0 358 2 0
2022-05-19 22:47:50 GMT 35.216980 -80.949402 0 358 1 0
2022-05-19 22:47:49 GMT 35.217060 -80.949432 0 2 5 0
2022-05-19 22:47:47 GMT 35.216999 -80.949409 0 2 0 0
2022-05-19 22:47:46 GMT 35.216969 -80.949402 0 2 0 0
2022-05-19 22:47:44 GMT 35.216969 -80.949402 0 2 0 0
2022-05-19 22:47:41 GMT 35.216980 -80.949402 0 2 0 0
2022-05-19 22:47:38 GMT 35.216980 -80.949409 0 1 1 0
2022-05-19 22:47:37 GMT 35.216991 -80.949409 0 5 0 0
2022-05-19 22:47:35 GMT 35.216991 -80.949409 0 5 1 0
2022-05-19 22:47:34 GMT 35.216991 -80.949379 0 7 1 0
2022-05-19 22:47:32 GMT 35.216980 -80.949387 0 7 0 0
2022-05-19 22:47:31 GMT 35.216969 -80.949371 0 6 2 0
2022-05-19 22:47:30 GMT 35.216980 -80.949402 0 1 0 -32
2022-05-19 22:47:28 GMT 35.216980 -80.949417 0 1 0 -32
2022-05-19 22:47:26 GMT 35.216980 -80.949402 0 1 0 -32
2022-05-19 22:47:24 GMT 35.216980 -80.949402 0 1 1 -32
2022-05-19 22:47:22 GMT 35.216980 -80.949440 0 3 2 0
2022-05-19 22:47:21 GMT 35.216999 -80.949432 0 7 2 0
2022-05-19 22:47:19 GMT 35.216999 -80.949387 0 8 1 0
2022-05-19 22:47:18 GMT 35.216969 -80.949387 0 8 2 0
2022-05-19 22:47:16 GMT 35.216999 -80.949348 0 7 4 0
2022-05-19 22:47:15 GMT 35.217010 -80.949402 0 7 4 0
2022-05-19 22:47:14 GMT 35.216999 -80.949409 0 0 4 0
2022-05-19 22:47:12 GMT 35.216969 -80.949417 0 352 6 -32
2022-05-19 22:47:11 GMT 35.216911 -80.949417 0 352 2 -32
2022-05-19 22:47:10 GMT 35.216930 -80.949409 0 351 5 -32
2022-05-19 22:47:08 GMT 35.216888 -80.949402 0 357 8 -32
2022-05-19 22:47:07 GMT 35.216789 -80.949371 0 339 7 -32
2022-05-19 22:47:05 GMT 35.216759 -80.949432 0 337 7 -32
2022-05-19 22:47:04 GMT 35.216709 -80.949379 0 352 10 -32
2022-05-19 22:47:02 GMT 35.216660 -80.949379 0 345 8 -32
2022-05-19 22:47:01 GMT 35.216599 -80.949379 0 343 5 -32
2022-05-19 22:47:00 GMT 35.216560 -80.949364 0 350 10 -32
2022-05-19 22:46:58 GMT 35.216511 -80.949310 0 349 8 -32
2022-05-19 22:46:56 GMT 35.216450 -80.949341 0 330 10 -32
2022-05-19 22:46:55 GMT 35.216370 -80.949364 0 309 9 -32
2022-05-19 22:46:54 GMT 35.216339 -80.949287 0 309 13 -32
2022-05-19 22:46:52 GMT 35.216301 -80.949257 0 305 13 -32
2022-05-19 22:46:51 GMT 35.216240 -80.949203 0 290 11 0
2022-05-19 22:46:49 GMT 35.216209 -80.949089 0 286 12 0
2022-05-19 22:46:48 GMT 35.216190 -80.948936 0 289 10 0
2022-05-19 22:46:46 GMT 35.216171 -80.948883 0 283 9 0
2022-05-19 22:46:44 GMT 35.216110 -80.948822 0 264 13 0
2022-05-19 22:46:43 GMT 35.216122 -80.948730 0 265 12 0
2022-05-19 22:46:42 GMT 35.216129 -80.948662 0 263 12 0
2022-05-19 22:46:41 GMT 35.216122 -80.948517 0 259 12 0
2022-05-19 22:46:39 GMT 35.216129 -80.948463 0 261 13 0
2022-05-19 22:46:38 GMT 35.216160 -80.948334 0 267 14 0
2022-05-19 22:46:36 GMT 35.216171 -80.948257 0 272 14 0
2022-05-19 22:46:35 GMT 35.216171 -80.948158 0 269 11 0
2022-05-19 22:46:33 GMT 35.216160 -80.948021 0 265 10 0
2022-05-19 22:46:32 GMT 35.216171 -80.947952 0 274 9 0
2022-05-19 22:46:31 GMT 35.216190 -80.947891 0 277 8 0
2022-05-19 22:44:52 GMT 35.216831 -80.943741 0 273 16 0
2022-05-19 22:44:51 GMT 35.216831 -80.943649 0 273 16 0
2022-05-19 22:44:50 GMT 35.216820 -80.943466 0 273 16 0
2022-05-19 22:44:48 GMT 35.216808 -80.943382 0 273 16 0
2022-05-19 22:44:47 GMT 35.216808 -80.943291 0 273 16 0
2022-05-19 22:44:46 GMT 35.216801 -80.943108 0 276 16 0
2022-05-19 22:44:44 GMT 35.216808 -80.943024 0 281 16 0
2022-05-19 22:44:43 GMT 35.216789 -80.942917 0 279 15 0
2022-05-19 22:44:41 GMT 35.216759 -80.942749 0 278 12 0
2022-05-19 22:44:40 GMT 35.216759 -80.942688 0 284 14 0
2022-05-19 22:44:39 GMT 35.216751 -80.942551 0 282 14 0
2022-05-19 22:44:37 GMT 35.216721 -80.942459 0 274 13 0
2022-05-19 22:44:36 GMT 35.216690 -80.942413 0 261 14 0
2022-05-19 22:44:34 GMT 35.216702 -80.942230 0 243 11 0
2022-05-19 22:44:33 GMT 35.216690 -80.942162 0 237 11 0
2022-05-19 22:44:32 GMT 35.216728 -80.942123 0 242 11 0
2022-05-19 22:44:31 GMT 35.216770 -80.942001 0 235 13 0
2022-05-19 22:44:29 GMT 35.216801 -80.941963 0 235 13 0
2022-05-19 22:44:27 GMT 35.216862 -80.941818 0 224 13 0
2022-05-19 22:44:26 GMT 35.216881 -80.941742 0 218 13 0
2022-05-19 22:44:25 GMT 35.216991 -80.941681 0 228 15 0
2022-05-19 22:44:23 GMT 35.217030 -80.941628 0 232 16 0
2022-05-19 22:44:22 GMT 35.217091 -80.941551 0 232 15 0
2022-05-19 22:44:20 GMT 35.217178 -80.941422 0 233 17 0
2022-05-19 22:44:19 GMT 35.217209 -80.941338 0 229 17 32
2022-05-19 22:44:18 GMT 35.217258 -80.941200 0 222 19 32
2022-05-19 22:44:16 GMT 35.217319 -80.941116 0 224 19 32
2022-05-19 22:44:15 GMT 35.217468 -80.940964 0 226 15 32
2022-05-19 22:44:13 GMT 35.217571 -80.940849 0 227 15 0
2022-05-19 22:44:11 GMT 35.217602 -80.940781 0 222 16 0
2022-05-19 22:44:10 GMT 35.217720 -80.940659 0 228 15 0
2022-05-19 22:44:08 GMT 35.217770 -80.940582 0 226 13 0
2022-05-19 22:44:07 GMT 35.217831 -80.940529 0 225 12 0
2022-05-19 22:44:05 GMT 35.217911 -80.940430 0 229 13 0
2022-05-19 22:44:04 GMT 35.217972 -80.940369 0 228 10 0
2022-05-19 22:44:03 GMT 35.217991 -80.940269 0 221 12 -256
2022-05-19 22:44:01 GMT 35.218048 -80.940247 0 220 11 -256
2022-05-19 22:44:00 GMT 35.218060 -80.940201 0 215 13 -256
2022-05-19 22:43:58 GMT 35.218140 -80.940102 0 210 13 -256
2022-05-19 22:43:57 GMT 35.218208 -80.940063 0 204 11 -256
2022-05-19 22:43:56 GMT 35.218231 -80.940018 0 198 13 -256
2022-05-19 22:43:54 GMT 35.218330 -80.939949 0 193 14 -256
2022-05-19 22:43:53 GMT 35.218430 -80.939957 0 203 12 -256
2022-05-19 22:43:52 GMT 35.218521 -80.939911 0 204 12 -256
2022-05-19 22:43:50 GMT 35.218590 -80.939888 0 203 10 -256
2022-05-19 22:43:49 GMT 35.218620 -80.939850 0 201 11 -256
2022-05-19 22:43:47 GMT 35.218731 -80.939819 0 210 9 -256
2022-05-19 22:43:46 GMT 35.218750 -80.939789 0 209 10 -256
2022-05-19 22:43:45 GMT 35.218922 -80.939743 0 215 8 -256
2022-05-19 22:43:43 GMT 35.218941 -80.939720 0 215 9 -256
2022-05-19 22:43:42 GMT 35.219028 -80.939659 0 219 9 -256
2022-05-19 22:42:55 GMT 35.220581 -80.938171 0 174 15 0
2022-05-19 22:42:54 GMT 35.220650 -80.938179 0 174 15 0
2022-05-19 22:42:53 GMT 35.220718 -80.938187 0 174 15 0
2022-05-19 22:42:51 GMT 35.220871 -80.938210 0 175 14 0
2022-05-19 22:42:50 GMT 35.220928 -80.938217 0 175 14 0
2022-05-19 22:42:49 GMT 35.221062 -80.938232 0 175 14 0
2022-05-19 22:42:47 GMT 35.221130 -80.938248 0 179 13 0
2022-05-19 22:42:45 GMT 35.221260 -80.938271 0 185 12 0
2022-05-19 22:42:44 GMT 35.221298 -80.938248 0 183 15 0
2022-05-19 22:42:42 GMT 35.221432 -80.938240 0 186 13 0
2022-05-19 22:42:41 GMT 35.221489 -80.938240 0 186 13 0
2022-05-19 22:42:40 GMT 35.221630 -80.938240 0 191 12 0
2022-05-19 22:42:38 GMT 35.221680 -80.938202 0 187 12 0
2022-05-19 22:42:37 GMT 35.221802 -80.938202 0 189 12 0
2022-05-19 22:42:35 GMT 35.221851 -80.938187 0 189 13 0
2022-05-19 22:42:34 GMT 35.221889 -80.938148 0 182 15 0
2022-05-19 22:42:32 GMT 35.222012 -80.938110 0 168 15 -32
2022-05-19 22:42:31 GMT 35.222092 -80.938164 0 176 13 -32
2022-05-19 22:42:30 GMT 35.222221 -80.938141 0 168 13 0
2022-05-19 22:42:28 GMT 35.222252 -80.938148 0 174 16 0
2022-05-19 22:42:27 GMT 35.222340 -80.938210 0 185 14 0
2022-05-19 22:42:25 GMT 35.222488 -80.938210 0 191 11 0
2022-05-19 22:42:24 GMT 35.222599 -80.938171 0 179 8 0
2022-05-19 22:42:23 GMT 35.222630 -80.938133 0 176 8 0
2022-05-19 22:42:21 GMT 35.222649 -80.938148 0 180 10 0
2022-05-19 22:42:19 GMT 35.222740 -80.938148 0 183 6 0
2022-05-19 22:42:18 GMT 35.222809 -80.938187 0 203 5 0
2022-05-19 22:42:17 GMT 35.222939 -80.938171 0 223 3 0
2022-05-19 22:42:15 GMT 35.222950 -80.938171 0 224 2 0
2022-05-19 22:42:14 GMT 35.222969 -80.938179 0 224 2 0
2022-05-19 22:42:10 GMT 35.223068 -80.938217 0 224 1 0
2022-05-19 22:42:08 GMT 35.223061 -80.938217 0 223 2 0
2022-05-19 22:42:06 GMT 35.223019 -80.938232 0 223 0 0
2022-05-19 22:42:05 GMT 35.223042 -80.938187 0 223 0 0
2022-05-19 22:42:03 GMT 35.223030 -80.938187 0 223 0 0
2022-05-19 22:42:02 GMT 35.223042 -80.938232 0 223 0 0
2022-05-19 22:42:00 GMT 35.223030 -80.938232 0 222 0 0
2022-05-19 22:41:59 GMT 35.223042 -80.938210 0 222 0 0
2022-05-19 22:41:56 GMT 35.223068 -80.938202 0 223 0 0
2022-05-19 22:41:54 GMT 35.223061 -80.938210 0 223 0 0
2022-05-19 22:41:52 GMT 35.223122 -80.938210 0 219 1 0
2022-05-19 22:41:51 GMT 35.223099 -80.938202 0 218 0 0
2022-05-19 22:41:49 GMT 35.223068 -80.938202 0 216 0 0
2022-05-19 22:41:48 GMT 35.223061 -80.938202 0 216 0 0
2022-05-19 22:41:47 GMT 35.223080 -80.938187 0 216 0 -32
2022-05-19 22:41:45 GMT 35.223049 -80.938202 0 216 0 -32
2022-05-19 22:41:43 GMT 35.223061 -80.938202 0 216 0 0
2022-05-19 22:41:41 GMT 35.223068 -80.938202 0 216 0 0
2022-05-19 22:41:38 GMT 35.223061 -80.938210 0 216 0 -32
2022-05-19 22:41:37 GMT 35.223068 -80.938210 0 216 0 -32
2022-05-19 22:41:36 GMT 35.223042 -80.938217 0 216 0 -32
2022-05-19 22:41:32 GMT 35.223042 -80.938210 0 216 0 0
2022-05-19 22:41:30 GMT 35.223030 -80.938210 0 216 0 0
2022-05-19 22:41:24 GMT 35.223019 -80.938210 0 216 0 0
2022-05-19 22:41:22 GMT 35.223042 -80.938202 0 216 0 0
2022-05-19 22:41:21 GMT 35.223042 -80.938217 0 216 0 0
2022-05-19 22:41:20 GMT 35.223030 -80.938217 0 216 0 0
2022-05-19 22:41:17 GMT 35.223019 -80.938217 0 216 0 0
2022-05-19 22:41:14 GMT 35.223042 -80.938217 0 213 0 0
2022-05-19 22:41:11 GMT 35.223042 -80.938210 0 213 0 0
2022-05-19 22:41:09 GMT 35.223030 -80.938217 0 214 0 0
2022-05-19 22:41:07 GMT 35.223019 -80.938217 0 214 0 0
2022-05-19 22:41:06 GMT 35.223030 -80.938232 0 214 0 0
2022-05-19 22:41:05 GMT 35.223030 -80.938217 0 214 0 0
2022-05-19 22:41:04 GMT 35.223042 -80.938187 0 217 3 0
2022-05-19 22:41:02 GMT 35.223019 -80.938232 0 222 0 0
2022-05-19 22:41:01 GMT 35.223030 -80.938278 0 221 2 0
2022-05-19 22:41:00 GMT 35.223019 -80.938271 0 220 2 0
2022-05-19 22:40:58 GMT 35.223019 -80.938240 0 181 3 0
2022-05-19 22:40:57 GMT 35.222988 -80.938202 0 181 2 0
2022-05-19 22:40:55 GMT 35.223030 -80.938202 0 181 0 0
2022-05-19 22:40:53 GMT 35.223030 -80.938217 0 180 0 0
2022-05-19 22:40:49 GMT 35.223019 -80.938210 0 175 0 -32
2022-05-19 22:40:47 GMT 35.223030 -80.938217 0 175 0 -32
2022-05-19 22:40:44 GMT 35.223019 -80.938217 0 174 4 -32
2022-05-19 22:40:43 GMT 35.223042 -80.938202 0 173 3 -64
2022-05-19 22:40:41 GMT 35.223061 -80.938217 0 191 4 -64
2022-05-19 22:40:40 GMT 35.223099 -80.938248 0 212 3 0
2022-05-19 22:40:38 GMT 35.223110 -80.938263 0 212 5 0
2022-05-19 22:40:37 GMT 35.223148 -80.938232 0 180 5 0
2022-05-19 22:40:35 GMT 35.223171 -80.938164 0 156 4 0
2022-05-19 22:40:34 GMT 35.223202 -80.938187 0 166 6 0
2022-05-19 22:40:32 GMT 35.223240 -80.938217 0 171 5 0
2022-05-19 22:40:31 GMT 35.223228 -80.938232 0 177 8 0
2022-05-19 22:40:30 GMT 35.223309 -80.938202 0 169 8 0
2022-05-19 22:40:28 GMT 35.223358 -80.938232 0 173 6 0
2022-05-19 22:40:27 GMT 35.223381 -80.938240 0 173 8 0
2022-05-19 22:40:26 GMT 35.223438 -80.938240 0 171 10 0
2022-05-19 22:40:24 GMT 35.223492 -80.938263 0 178 8 0
2022-05-19 22:40:22 GMT 35.223560 -80.938278 0 191 7 0
2022-05-19 22:40:21 GMT 35.223572 -80.938293 0 184 10 0
2022-05-19 22:40:20 GMT 35.223629 -80.938263 0 179 8 0
2022-05-19 22:40:19 GMT 35.223701 -80.938248 0 179 10 0
2022-05-19 22:40:17 GMT 35.223740 -80.938248 0 178 10 0
2022-05-19 22:40:16 GMT 35.223789 -80.938240 0 170 10 0
2022-05-19 22:40:14 GMT 35.223869 -80.938248 0 172 12 0
2022-05-19 22:40:12 GMT 35.223991 -80.938271 0 182 10 0
2022-05-19 22:40:11 GMT 35.224030 -80.938293 0 180 9 0
2022-05-19 22:40:10 GMT 35.224091 -80.938248 0 172 13 0
2022-05-19 22:40:08 GMT 35.224140 -80.938309 0 182 13 0
2022-05-19 22:40:06 GMT 35.224281 -80.938293 0 176 11 0
2022-05-19 22:40:05 GMT 35.224331 -80.938301 0 179 10 0
2022-05-19 22:40:03 GMT 35.224419 -80.938301 0 174 12 0
2022-05-19 22:40:02 GMT 35.224499 -80.938293 0 170 9 0
2022-05-19 22:40:01 GMT 35.224541 -80.938278 0 169 10 0
2022-05-19 22:39:59 GMT 35.224651 -80.938316 0 173 6 0
2022-05-19 22:39:58 GMT 35.224670 -80.938309 0 170 8 0
2022-05-19 22:39:57 GMT 35.224739 -80.938347 0 178 8 0
2022-05-19 22:39:55 GMT 35.224781 -80.938370 0 180 8 0
2022-05-19 22:39:54 GMT 35.224850 -80.938370 0 183 10 0
2022-05-19 22:39:52 GMT 35.224899 -80.938339 0 177 10 0
2022-05-19 22:39:50 GMT 35.224979 -80.938332 0 171 11 0
2022-05-19 22:39:49 GMT 35.225029 -80.938332 0 170 11 0
2022-05-19 22:39:47 GMT 35.225128 -80.938347 0 171 11 0
2022-05-19 22:39:46 GMT 35.225170 -80.938362 0 174 12 0
2022-05-19 22:39:45 GMT 35.225250 -80.938393 0 177 10 0
2022-05-19 22:39:43 GMT 35.225311 -80.938377 0 172 14 0
2022-05-19 22:39:42 GMT 35.225380 -80.938393 0 170 14 0
2022-05-19 22:39:40 GMT 35.225521 -80.938408 0 173 12 0
2022-05-19 22:39:38 GMT 35.225639 -80.938461 0 178 12 0
2022-05-19 22:39:37 GMT 35.225681 -80.938461 0 177 13 0
2022-05-19 22:39:36 GMT 35.225800 -80.938454 0 159 12 0
2022-05-19 22:39:34 GMT 35.225849 -80.938454 0 148 14 0
2022-05-19 22:39:33 GMT 35.225941 -80.938469 0 137 12 0
2022-05-19 22:39:32 GMT 35.226028 -80.938530 0 119 12 0
2022-05-19 22:39:30 GMT 35.226089 -80.938599 0 114 10 64
2022-05-19 22:39:28 GMT 35.226158 -80.938690 0 108 9 64
2022-05-19 22:39:27 GMT 35.226151 -80.938698 0 110 14 64
2022-05-19 22:39:25 GMT 35.226181 -80.938843 0 119 15 64
2022-05-19 22:39:24 GMT 35.226212 -80.938927 0 117 15 64
2022-05-19 22:39:23 GMT 35.226280 -80.939034 0 108 11 64
2022-05-19 22:39:21 GMT 35.226330 -80.939133 0 104 12 64
2022-05-19 22:39:20 GMT 35.226349 -80.939232 0 102 14 64
2022-05-19 22:39:19 GMT 35.226410 -80.939293 0 91 15 64
2022-05-19 22:39:17 GMT 35.226410 -80.939369 0 88 15 64
2022-05-19 22:39:15 GMT 35.226429 -80.939552 0 81 14 96
2022-05-19 22:39:14 GMT 35.226429 -80.939568 0 82 18 96
2022-05-19 22:39:13 GMT 35.226391 -80.939819 0 93 12 -192
2022-05-19 22:39:11 GMT 35.226379 -80.939919 0 99 9 -192
2022-05-19 22:39:10 GMT 35.226360 -80.940002 0 96 11 -192
2022-05-19 22:39:08 GMT 35.226410 -80.939980 0 91 16 0
2022-05-19 22:39:07 GMT 35.226410 -80.940140 0 92 14 -32
2022-05-19 22:39:05 GMT 35.226398 -80.940338 0 71 12 -32
2022-05-19 22:39:04 GMT 35.226421 -80.940361 0 62 12 -32
2022-05-19 22:39:03 GMT 35.226410 -80.940529 0 16 9 -32
2022-05-19 22:39:01 GMT 35.226421 -80.940613 0 359 5 -32
2022-05-19 22:38:59 GMT 35.226421 -80.940720 0 359 3 -32
2022-05-19 22:38:58 GMT 35.226410 -80.940727 0 359 4 -32
2022-05-19 22:38:57 GMT 35.226421 -80.940804 0 350 4 -32
2022-05-19 22:38:55 GMT 35.226299 -80.940826 0 347 1 -32

Making use of Plane Finder data

You are free to use the raw flight data, aircraft information and images provided in this report for your own purposes provided the data is correctly attributed to Plane Finder. We ask that you please credit Plane Finder and link to planefinder.net in close proximity to the content.

Optionally one of the following logos (no smaller then 150x24px) can be used and must link to planefinder.net

Embedding the Plane Finder map

You are welcome to embed the Plane Finder playback map on your website to offer visitors a more interactive experience. We suggest using the following HTML code:

<iframe src="//planefinder.net/data/report/AA6034-N638AE-7700-squawk-2022-05-19/map" width="800" height="600" seamless="seamless"></iframe>

Where our data comes from

Plane Finder has a global network of data feeds and antenna radars that receive data broadcast directly from aircraft. The primary technologies used are ADS-B and MLAT. We also show feeds from the FAA and a FLARM glider feed.

Click here to find out more about the Plane Finder network.

How we collect our data